PWSweather.com
Personal Weather Stations
Station Observations
ALLANTONFL
Allanton, Panama City, FL 32404

AllantonPanama City, FL 32404

Lat: 30.036, Lon: -85.48284060000003

Elevation: 11

Station Type: Acurite 5in1

High Low Average
Temperature 77.2°F25.1°C 63.1°F17.3°C 74.6°F23.7°C
Dew Point 72.1°F22.3°C 62.0°F16.7°C 69.4°F20.8°C
Winds 16.1 mph 25.9 kmh Calm Calm 2.0 mph S3.2 kmh S
Wind Gusts 17.1 mph27.5 kmh -- 3.0 mph4.8 kmh
Humidity 96% 76% 84%
Pressure 29.99 in1015.6 mb 29.74 in1007.1 mb -
Precipitation 0.06 in1.5 mm - -
Hour Temp Dew Point Humidity Winds Wind Gusts Pressure Precip Precip Rate Daily Precip Total
12:34 AM 64.4°F18.0°C 62.6°F17.0°C 94% 3.2 mph ESE5.1 kmh ESE 3.2 mph5.1 kmh 29.99 in1015.6 mb 0.00 in0.0 mm 0.00 in0.0 mm 0.00 in0.0 mm
12:35 AM 63.7°F17.6°C 62.2°F16.8°C 95% 2.7 mph SE4.3 kmh SE 4.7 mph7.6 kmh 29.99 in1015.6 mb 0.00 in0.0 mm 0.00 in0.0 mm 0.00 in0.0 mm
12:36 AM 63.7°F17.6°C 62.2°F16.8°C 95% 3.2 mph SSE5.1 kmh SSE 4.7 mph7.6 kmh 29.97 in1014.9 mb 0.00 in0.0 mm 0.00 in0.0 mm 0.00 in0.0 mm
01:58 AM 63.7°F17.6°C 62.2°F16.8°C 95% 4.2 mph ESE6.8 kmh ESE 4.2 mph6.8 kmh 29.93 in1013.5 mb 0.00 in0.0 mm 0.00 in0.0 mm 0.00 in0.0 mm
01:59 AM 63.5°F17.5°C 62.3°F16.8°C 96% 3.7 mph ESE6.0 kmh ESE 6.3 mph10.1 kmh 29.91 in1012.9 mb 0.00 in0.0 mm 0.00 in0.0 mm 0.00 in0.0 mm
02:00 AM 63.5°F17.5°C 62.3°F16.8°C 96% 3.7 mph ESE6.0 kmh ESE 6.3 mph10.1 kmh 29.91 in1012.9 mb 0.00 in0.0 mm 0.00 in0.0 mm 0.00 in0.0 mm
02:01 AM 63.5°F17.5°C 62.3°F16.8°C 96% 6.3 mph SE10.1 kmh SE 8.9 mph14.3 kmh 29.91 in1012.9 mb 0.00 in0.0 mm 0.00 in0.0 mm 0.00 in0.0 mm
02:02 AM 63.5°F17.5°C 62.3°F16.8°C 96% 7.3 mph ESE11.7 kmh ESE 8.9 mph14.3 kmh 29.91 in1012.9 mb 0.00 in0.0 mm 0.00 in0.0 mm 0.00 in0.0 mm
02:03 AM 63.5°F17.5°C 62.3°F16.8°C 96% 2.7 mph ESE4.3 kmh ESE 8.9 mph14.3 kmh 29.91 in1012.9 mb 0.00 in0.0 mm 0.00 in0.0 mm 0.00 in0.0 mm
02:04 AM 63.5°F17.5°C 62.3°F16.8°C 96% 3.2 mph ESE5.1 kmh ESE 8.9 mph14.3 kmh 29.91 in1012.9 mb 0.00 in0.0 mm 0.00 in0.0 mm 0.00 in0.0 mm
02:41 AM 63.1°F17.3°C 62.0°F16.7°C 96% 3.7 mph ESE6.0 kmh ESE 3.7 mph6.0 kmh 29.89 in1012.2 mb 0.00 in0.0 mm 0.00 in0.0 mm 0.00 in0.0 mm
05:43 AM 65.1°F18.4°C 63.9°F17.7°C 96% 11.4 mph ESE18.3 kmh ESE 11.4 mph18.3 kmh 29.87 in1011.5 mb 0.00 in0.0 mm 0.00 in0.0 mm 0.00 in0.0 mm
05:44 AM 65.1°F18.4°C 63.9°F17.7°C 96% 7.8 mph ESE12.6 kmh ESE 11.4 mph18.3 kmh 29.84 in1010.5 mb 0.00 in0.0 mm 0.00 in0.0 mm 0.00 in0.0 mm
05:45 AM 65.1°F18.4°C 63.9°F17.7°C 96% 6.3 mph SSE10.1 kmh SSE 11.4 mph18.3 kmh 29.84 in1010.5 mb 0.00 in0.0 mm 0.00 in0.0 mm 0.00 in0.0 mm
10:06 AM 66.9°F19.4°C 65.4°F18.6°C 95% 3.7 mph SSE6.0 kmh SSE 3.7 mph6.0 kmh 29.86 in1011.2 mb 0.00 in0.0 mm 0.00 in0.0 mm 0.00 in0.0 mm
10:07 AM 67.1°F19.5°C 65.6°F18.7°C 95% 2.2 mph SSE3.5 kmh SSE 5.8 mph9.3 kmh 29.86 in1011.2 mb 0.00 in0.0 mm 0.00 in0.0 mm 0.00 in0.0 mm
10:08 AM 67.1°F19.5°C 65.6°F18.7°C 95% 2.7 mph SE4.3 kmh SE 5.8 mph9.3 kmh 29.86 in1011.2 mb 0.00 in0.0 mm 0.00 in0.0 mm 0.00 in0.0 mm
10:09 AM 67.1°F19.5°C 65.6°F18.7°C 95% 4.7 mph E7.6 kmh E 5.8 mph9.3 kmh 29.86 in1011.2 mb 0.00 in0.0 mm 0.00 in0.0 mm 0.00 in0.0 mm
10:10 AM 67.1°F19.5°C 65.6°F18.7°C 95% 3.2 mph ESE5.1 kmh ESE 5.8 mph9.3 kmh 29.86 in1011.2 mb 0.00 in0.0 mm 0.00 in0.0 mm 0.00 in0.0 mm
10:11 AM 67.1°F19.5°C 65.6°F18.7°C 95% 2.7 mph ESE4.3 kmh ESE 5.8 mph9.3 kmh 29.86 in1011.2 mb 0.00 in0.0 mm 0.00 in0.0 mm 0.00 in0.0 mm
10:12 AM 67.1°F19.5°C 65.6°F18.7°C 95% 3.2 mph SE5.1 kmh SE 5.8 mph9.3 kmh 29.85 in1010.8 mb 0.00 in0.0 mm 0.00 in0.0 mm 0.00 in0.0 mm
10:13 AM 67.1°F19.5°C 65.6°F18.7°C 95% 5.8 mph ESE9.3 kmh ESE 5.8 mph9.3 kmh 29.85 in1010.8 mb 0.00 in0.0 mm 0.00 in0.0 mm 0.00 in0.0 mm
10:14 AM 67.1°F19.5°C 65.6°F18.7°C 95% 4.7 mph ESE7.6 kmh ESE 5.8 mph9.3 kmh 29.85 in1010.8 mb 0.00 in0.0 mm 0.00 in0.0 mm 0.00 in0.0 mm
10:15 AM 67.3°F19.6°C 65.8°F18.8°C 95% 2.7 mph SSE4.3 kmh SSE 5.8 mph9.3 kmh 29.85 in1010.8 mb 0.00 in0.0 mm 0.00 in0.0 mm 0.00 in0.0 mm
10:16 AM 67.3°F19.6°C 65.8°F18.8°C 95% 7.3 mph SE11.7 kmh SE 7.3 mph11.7 kmh 29.85 in1010.8 mb 0.00 in0.0 mm 0.00 in0.0 mm 0.00 in0.0 mm
10:17 AM 67.3°F19.6°C 65.8°F18.8°C 95% 3.2 mph SSE5.1 kmh SSE 7.3 mph11.7 kmh 29.85 in1010.8 mb 0.00 in0.0 mm 0.00 in0.0 mm 0.00 in0.0 mm
10:18 AM 67.3°F19.6°C 65.8°F18.8°C 95% 4.7 mph ESE7.6 kmh ESE 7.3 mph11.7 kmh 29.85 in1010.8 mb 0.00 in0.0 mm 0.00 in0.0 mm 0.00 in0.0 mm
10:19 AM 67.5°F19.7°C 66.0°F18.9°C 95% 4.2 mph ESE6.8 kmh ESE 7.3 mph11.7 kmh 29.85 in1010.8 mb 0.00 in0.0 mm 0.00 in0.0 mm 0.00 in0.0 mm
10:20 AM 67.5°F19.7°C 66.0°F18.9°C 95% 7.3 mph ESE11.7 kmh ESE 7.3 mph11.7 kmh 29.85 in1010.8 mb 0.00 in0.0 mm 0.00 in0.0 mm 0.00 in0.0 mm
10:21 AM 67.5°F19.7°C 66.0°F18.9°C 95% 7.3 mph ESE11.7 kmh ESE 7.8 mph12.6 kmh 29.85 in1010.8 mb 0.00 in0.0 mm 0.00 in0.0 mm 0.00 in0.0 mm
10:22 AM 67.5°F19.7°C 66.0°F18.9°C 95% 7.8 mph SE12.6 kmh SE 7.8 mph12.6 kmh 29.85 in1010.8 mb 0.00 in0.0 mm 0.00 in0.0 mm 0.00 in0.0 mm
10:23 AM 67.5°F19.7°C 66.0°F18.9°C 95% 7.8 mph SE12.6 kmh SE 7.8 mph12.6 kmh 29.85 in1010.8 mb 0.00 in0.0 mm 0.00 in0.0 mm 0.00 in0.0 mm
03:22 PM 77.2°F25.1°C 70.1°F21.2°C 79% Calm Calm -- 29.74 in1007.1 mb 0.00 in0.0 mm 0.00 in0.0 mm 0.00 in0.0 mm
03:23 PM 77.2°F25.1°C 70.1°F21.2°C 79% Calm Calm -- 29.74 in1007.1 mb 0.00 in0.0 mm 0.00 in0.0 mm 0.00 in0.0 mm
03:24 PM 77.0°F25.0°C 69.2°F20.7°C 77% Calm Calm -- 29.74 in1007.1 mb 0.00 in0.0 mm 0.00 in0.0 mm 0.00 in0.0 mm
03:25 PM 77.0°F25.0°C 69.6°F20.9°C 78% Calm Calm -- 29.74 in1007.1 mb 0.00 in0.0 mm 0.00 in0.0 mm 0.00 in0.0 mm
03:26 PM 76.8°F24.9°C 69.4°F20.8°C 78% Calm Calm -- 29.74 in1007.1 mb 0.00 in0.0 mm 0.00 in0.0 mm 0.00 in0.0 mm
03:27 PM 76.8°F24.9°C 69.8°F21.0°C 79% Calm Calm -- 29.74 in1007.1 mb 0.00 in0.0 mm 0.00 in0.0 mm 0.00 in0.0 mm
03:28 PM 76.8°F24.9°C 69.4°F20.8°C 78% Calm Calm -- 29.74 in1007.1 mb 0.00 in0.0 mm 0.00 in0.0 mm 0.00 in0.0 mm
03:29 PM 76.8°F24.9°C 70.2°F21.2°C 80% Calm Calm -- 29.74 in1007.1 mb 0.00 in0.0 mm 0.00 in0.0 mm 0.00 in0.0 mm
03:30 PM 76.8°F24.9°C 69.8°F21.0°C 79% Calm Calm -- 29.74 in1007.1 mb 0.00 in0.0 mm 0.00 in0.0 mm 0.00 in0.0 mm
03:31 PM 76.6°F24.8°C 70.0°F21.1°C 80% Calm Calm -- 29.74 in1007.1 mb 0.00 in0.0 mm 0.00 in0.0 mm 0.00 in0.0 mm
03:32 PM 76.6°F24.8°C 69.6°F20.9°C 79% Calm Calm -- 29.74 in1007.1 mb 0.00 in0.0 mm 0.00 in0.0 mm 0.00 in0.0 mm
03:33 PM 76.6°F24.8°C 70.0°F21.1°C 80% Calm Calm -- 29.74 in1007.1 mb 0.00 in0.0 mm 0.00 in0.0 mm 0.00 in0.0 mm
03:34 PM 76.6°F24.8°C 70.0°F21.1°C 80% Calm Calm -- 29.74 in1007.1 mb 0.00 in0.0 mm 0.00 in0.0 mm 0.00 in0.0 mm
03:35 PM 76.6°F24.8°C 70.0°F21.1°C 80% Calm Calm -- 29.74 in1007.1 mb 0.00 in0.0 mm 0.00 in0.0 mm 0.00 in0.0 mm
03:36 PM 76.6°F24.8°C 70.0°F21.1°C 80% Calm Calm -- 29.74 in1007.1 mb 0.00 in0.0 mm 0.00 in0.0 mm 0.00 in0.0 mm
03:37 PM 76.5°F24.7°C 69.8°F21.0°C 80% Calm Calm -- 29.75 in1007.5 mb 0.00 in0.0 mm 0.00 in0.0 mm 0.00 in0.0 mm
03:38 PM 76.5°F24.7°C 70.2°F21.2°C 81% Calm Calm -- 29.75 in1007.5 mb 0.00 in0.0 mm 0.00 in0.0 mm 0.00 in0.0 mm
03:39 PM 76.5°F24.7°C 69.8°F21.0°C 80% Calm Calm -- 29.75 in1007.5 mb 0.00 in0.0 mm 0.00 in0.0 mm 0.00 in0.0 mm
03:40 PM 76.5°F24.7°C 69.8°F21.0°C 80% Calm Calm -- 29.75 in1007.5 mb 0.00 in0.0 mm 0.00 in0.0 mm 0.00 in0.0 mm
03:41 PM 76.5°F24.7°C 69.8°F21.0°C 80% Calm Calm -- 29.75 in1007.5 mb 0.00 in0.0 mm 0.00 in0.0 mm 0.00 in0.0 mm
03:42 PM 76.5°F24.7°C 69.8°F21.0°C 80% Calm Calm -- 29.75 in1007.5 mb 0.00 in0.0 mm 0.00 in0.0 mm 0.00 in0.0 mm
03:43 PM 76.3°F24.6°C 69.6°F20.9°C 80% Calm Calm -- 29.75 in1007.5 mb 0.00 in0.0 mm 0.00 in0.0 mm 0.00 in0.0 mm
03:44 PM 76.3°F24.6°C 70.0°F21.1°C 81% Calm Calm -- 29.75 in1007.5 mb 0.00 in0.0 mm 0.00 in0.0 mm 0.00 in0.0 mm
03:45 PM 76.3°F24.6°C 70.0°F21.1°C 81% Calm Calm -- 29.75 in1007.5 mb 0.00 in0.0 mm 0.00 in0.0 mm 0.00 in0.0 mm
03:46 PM 76.1°F24.5°C 69.5°F20.8°C 80% Calm Calm -- 29.75 in1007.5 mb 0.00 in0.0 mm 0.00 in0.0 mm 0.00 in0.0 mm
03:47 PM 76.1°F24.5°C 69.8°F21.0°C 81% Calm Calm -- 29.75 in1007.5 mb 0.00 in0.0 mm 0.00 in0.0 mm 0.00 in0.0 mm
03:48 PM 76.1°F24.5°C 69.8°F21.0°C 81% Calm Calm -- 29.75 in1007.5 mb 0.00 in0.0 mm 0.00 in0.0 mm 0.00 in0.0 mm
03:49 PM 76.1°F24.5°C 69.8°F21.0°C 81% Calm Calm -- 29.76 in1007.8 mb 0.00 in0.0 mm 0.00 in0.0 mm 0.00 in0.0 mm
03:50 PM 76.1°F24.5°C 69.5°F20.8°C 80% Calm Calm -- 29.76 in1007.8 mb 0.00 in0.0 mm 0.00 in0.0 mm 0.00 in0.0 mm
03:51 PM 76.1°F24.5°C 69.8°F21.0°C 81% Calm Calm -- 29.76 in1007.8 mb 0.00 in0.0 mm 0.00 in0.0 mm 0.00 in0.0 mm
03:52 PM 76.1°F24.5°C 69.8°F21.0°C 81% Calm Calm -- 29.76 in1007.8 mb 0.00 in0.0 mm 0.00 in0.0 mm 0.00 in0.0 mm
03:53 PM 76.1°F24.5°C 69.8°F21.0°C 81% Calm Calm -- 29.76 in1007.8 mb 0.00 in0.0 mm 0.00 in0.0 mm 0.00 in0.0 mm
03:54 PM 76.1°F24.5°C 69.8°F21.0°C 81% Calm Calm -- 29.76 in1007.8 mb 0.00 in0.0 mm 0.00 in0.0 mm 0.00 in0.0 mm
03:55 PM 76.1°F24.5°C 69.8°F21.0°C 81% Calm Calm -- 29.76 in1007.8 mb 0.00 in0.0 mm 0.00 in0.0 mm 0.00 in0.0 mm
03:56 PM 76.1°F24.5°C 69.8°F21.0°C 81% Calm Calm -- 29.76 in1007.8 mb 0.00 in0.0 mm 0.00 in0.0 mm 0.00 in0.0 mm
03:57 PM 76.1°F24.5°C 70.2°F21.2°C 82% Calm Calm -- 29.76 in1007.8 mb 0.00 in0.0 mm 0.00 in0.0 mm 0.00 in0.0 mm
03:58 PM 76.1°F24.5°C 70.2°F21.2°C 82% Calm Calm -- 29.76 in1007.8 mb 0.00 in0.0 mm 0.00 in0.0 mm 0.00 in0.0 mm
03:59 PM 76.1°F24.5°C 70.2°F21.2°C 82% Calm Calm -- 29.76 in1007.8 mb 0.00 in0.0 mm 0.00 in0.0 mm 0.00 in0.0 mm
04:00 PM 76.1°F24.5°C 70.2°F21.2°C 82% Calm Calm -- 29.76 in1007.8 mb 0.00 in0.0 mm 0.00 in0.0 mm 0.00 in0.0 mm
04:01 PM 75.9°F24.4°C 69.7°F20.9°C 81% Calm Calm -- 29.77 in1008.1 mb 0.00 in0.0 mm 0.00 in0.0 mm 0.00 in0.0 mm
04:02 PM 75.9°F24.4°C 70.0°F21.1°C 82% Calm Calm -- 29.77 in1008.1 mb 0.00 in0.0 mm 0.00 in0.0 mm 0.00 in0.0 mm
04:03 PM 75.9°F24.4°C 69.7°F20.9°C 81% Calm Calm -- 29.77 in1008.1 mb 0.00 in0.0 mm 0.00 in0.0 mm 0.00 in0.0 mm
04:04 PM 75.9°F24.4°C 69.7°F20.9°C 81% Calm Calm -- 29.77 in1008.1 mb 0.00 in0.0 mm 0.00 in0.0 mm 0.00 in0.0 mm
04:05 PM 75.9°F24.4°C 70.0°F21.1°C 82% Calm Calm -- 29.77 in1008.1 mb 0.00 in0.0 mm 0.00 in0.0 mm 0.00 in0.0 mm
04:06 PM 75.7°F24.3°C 69.5°F20.8°C 81% Calm Calm -- 29.77 in1008.1 mb 0.00 in0.0 mm 0.00 in0.0 mm 0.00 in0.0 mm
04:07 PM 75.7°F24.3°C 69.5°F20.8°C 81% Calm Calm -- 29.77 in1008.1 mb 0.00 in0.0 mm 0.00 in0.0 mm 0.00 in0.0 mm
04:08 PM 75.7°F24.3°C 69.8°F21.0°C 82% Calm Calm -- 29.77 in1008.1 mb 0.00 in0.0 mm 0.00 in0.0 mm 0.00 in0.0 mm
04:09 PM 75.7°F24.3°C 69.1°F20.6°C 80% Calm Calm -- 29.77 in1008.1 mb 0.00 in0.0 mm 0.00 in0.0 mm 0.00 in0.0 mm
04:10 PM 75.7°F24.3°C 69.5°F20.8°C 81% Calm Calm -- 29.77 in1008.1 mb 0.00 in0.0 mm 0.00 in0.0 mm 0.00 in0.0 mm
04:11 PM 75.7°F24.3°C 69.8°F21.0°C 82% Calm Calm -- 29.77 in1008.1 mb 0.00 in0.0 mm 0.00 in0.0 mm 0.00 in0.0 mm
04:12 PM 75.7°F24.3°C 69.8°F21.0°C 82% Calm Calm -- 29.77 in1008.1 mb 0.00 in0.0 mm 0.00 in0.0 mm 0.00 in0.0 mm
04:13 PM 75.7°F24.3°C 69.5°F20.8°C 81% Calm Calm -- 29.77 in1008.1 mb 0.00 in0.0 mm 0.00 in0.0 mm 0.00 in0.0 mm
04:14 PM 75.7°F24.3°C 69.5°F20.8°C 81% Calm Calm -- 29.77 in1008.1 mb 0.00 in0.0 mm 0.00 in0.0 mm 0.00 in0.0 mm
04:15 PM 75.7°F24.3°C 69.5°F20.8°C 81% Calm Calm -- 29.77 in1008.1 mb 0.00 in0.0 mm 0.00 in0.0 mm 0.00 in0.0 mm
04:16 PM 75.7°F24.3°C 69.5°F20.8°C 81% Calm Calm -- 29.77 in1008.1 mb 0.00 in0.0 mm 0.00 in0.0 mm 0.00 in0.0 mm
04:17 PM 75.9°F24.4°C 70.0°F21.1°C 82% Calm Calm -- 29.77 in1008.1 mb 0.00 in0.0 mm 0.00 in0.0 mm 0.00 in0.0 mm
04:18 PM 75.9°F24.4°C 70.0°F21.1°C 82% Calm Calm -- 29.77 in1008.1 mb 0.00 in0.0 mm 0.00 in0.0 mm 0.00 in0.0 mm
04:19 PM 75.9°F24.4°C 70.0°F21.1°C 82% Calm Calm -- 29.77 in1008.1 mb 0.00 in0.0 mm 0.00 in0.0 mm 0.00 in0.0 mm
04:20 PM 75.9°F24.4°C 70.0°F21.1°C 82% Calm Calm -- 29.77 in1008.1 mb 0.00 in0.0 mm 0.00 in0.0 mm 0.00 in0.0 mm
04:21 PM 75.9°F24.4°C 70.0°F21.1°C 82% Calm Calm -- 29.77 in1008.1 mb 0.00 in0.0 mm 0.00 in0.0 mm 0.00 in0.0 mm
04:22 PM 75.9°F24.4°C 70.0°F21.1°C 82% Calm Calm -- 29.77 in1008.1 mb 0.00 in0.0 mm 0.00 in0.0 mm 0.00 in0.0 mm
04:23 PM 75.9°F24.4°C 70.0°F21.1°C 82% Calm Calm -- 29.77 in1008.1 mb 0.00 in0.0 mm 0.00 in0.0 mm 0.00 in0.0 mm
04:24 PM 75.9°F24.4°C 70.0°F21.1°C 82% Calm Calm -- 29.77 in1008.1 mb 0.00 in0.0 mm 0.00 in0.0 mm 0.00 in0.0 mm
04:25 PM 75.9°F24.4°C 70.0°F21.1°C 82% Calm Calm -- 29.77 in1008.1 mb 0.00 in0.0 mm 0.00 in0.0 mm 0.00 in0.0 mm
04:26 PM 75.9°F24.4°C 70.0°F21.1°C 82% Calm Calm -- 29.77 in1008.1 mb 0.00 in0.0 mm 0.00 in0.0 mm 0.00 in0.0 mm
04:27 PM 75.9°F24.4°C 70.0°F21.1°C 82% Calm Calm -- 29.77 in1008.1 mb 0.00 in0.0 mm 0.00 in0.0 mm 0.00 in0.0 mm
04:28 PM 75.9°F24.4°C 70.0°F21.1°C 82% Calm Calm -- 29.77 in1008.1 mb 0.00 in0.0 mm 0.00 in0.0 mm 0.00 in0.0 mm
04:29 PM 75.9°F24.4°C 70.0°F21.1°C 82% Calm Calm -- 29.77 in1008.1 mb 0.00 in0.0 mm 0.00 in0.0 mm 0.00 in0.0 mm
04:30 PM 75.9°F24.4°C 70.0°F21.1°C 82% Calm Calm -- 29.77 in1008.1 mb 0.00 in0.0 mm 0.00 in0.0 mm 0.00 in0.0 mm
04:31 PM 75.9°F24.4°C 70.0°F21.1°C 82% Calm Calm -- 29.77 in1008.1 mb 0.00 in0.0 mm 0.00 in0.0 mm 0.00 in0.0 mm
04:32 PM 75.9°F24.4°C 70.0°F21.1°C 82% Calm Calm -- 29.77 in1008.1 mb 0.00 in0.0 mm 0.00 in0.0 mm 0.00 in0.0 mm
04:33 PM 75.9°F24.4°C 70.0°F21.1°C 82% Calm Calm -- 29.77 in1008.1 mb 0.00 in0.0 mm 0.00 in0.0 mm 0.00 in0.0 mm
04:34 PM 75.9°F24.4°C 70.0°F21.1°C 82% Calm Calm -- 29.77 in1008.1 mb 0.00 in0.0 mm 0.00 in0.0 mm 0.00 in0.0 mm
04:35 PM 75.9°F24.4°C 70.0°F21.1°C 82% Calm Calm -- 29.77 in1008.1 mb 0.00 in0.0 mm 0.00 in0.0 mm 0.00 in0.0 mm
04:36 PM 75.9°F24.4°C 70.0°F21.1°C 82% Calm Calm -- 29.77 in1008.1 mb 0.00 in0.0 mm 0.00 in0.0 mm 0.00 in0.0 mm
04:37 PM 75.9°F24.4°C 69.7°F20.9°C 81% Calm Calm -- 29.77 in1008.1 mb 0.00 in0.0 mm 0.00 in0.0 mm 0.00 in0.0 mm
04:38 PM 75.9°F24.4°C 69.7°F20.9°C 81% Calm Calm -- 29.77 in1008.1 mb 0.00 in0.0 mm 0.00 in0.0 mm 0.00 in0.0 mm
04:39 PM 75.9°F24.4°C 69.7°F20.9°C 81% Calm Calm -- 29.77 in1008.1 mb 0.00 in0.0 mm 0.00 in0.0 mm 0.00 in0.0 mm
04:40 PM 75.9°F24.4°C 69.7°F20.9°C 81% Calm Calm -- 29.77 in1008.1 mb 0.00 in0.0 mm 0.00 in0.0 mm 0.00 in0.0 mm
04:41 PM 75.9°F24.4°C 69.7°F20.9°C 81% Calm Calm -- 29.77 in1008.1 mb 0.00 in0.0 mm 0.00 in0.0 mm 0.00 in0.0 mm
04:42 PM 75.9°F24.4°C 69.7°F20.9°C 81% Calm Calm -- 29.77 in1008.1 mb 0.00 in0.0 mm 0.00 in0.0 mm 0.00 in0.0 mm
04:43 PM 75.9°F24.4°C 69.7°F20.9°C 81% Calm Calm -- 29.77 in1008.1 mb 0.00 in0.0 mm 0.00 in0.0 mm 0.00 in0.0 mm
04:44 PM 75.9°F24.4°C 69.7°F20.9°C 81% Calm Calm -- 29.77 in1008.1 mb 0.00 in0.0 mm 0.00 in0.0 mm 0.00 in0.0 mm
04:45 PM 75.9°F24.4°C 69.7°F20.9°C 81% Calm Calm -- 29.77 in1008.1 mb 0.00 in0.0 mm 0.00 in0.0 mm 0.00 in0.0 mm
04:46 PM 75.9°F24.4°C 69.7°F20.9°C 81% Calm Calm -- 29.77 in1008.1 mb 0.00 in0.0 mm 0.00 in0.0 mm 0.00 in0.0 mm
04:47 PM 75.9°F24.4°C 69.7°F20.9°C 81% Calm Calm -- 29.77 in1008.1 mb 0.00 in0.0 mm 0.00 in0.0 mm 0.00 in0.0 mm
04:48 PM 75.9°F24.4°C 69.7°F20.9°C 81% Calm Calm -- 29.77 in1008.1 mb 0.00 in0.0 mm 0.00 in0.0 mm 0.00 in0.0 mm
04:49 PM 75.9°F24.4°C 69.7°F20.9°C 81% Calm Calm -- 29.77 in1008.1 mb 0.00 in0.0 mm 0.00 in0.0 mm 0.00 in0.0 mm
04:50 PM 75.9°F24.4°C 69.7°F20.9°C 81% Calm Calm -- 29.77 in1008.1 mb 0.00 in0.0 mm 0.00 in0.0 mm 0.00 in0.0 mm
04:51 PM 75.9°F24.4°C 69.7°F20.9°C 81% Calm Calm -- 29.77 in1008.1 mb 0.00 in0.0 mm 0.00 in0.0 mm 0.00 in0.0 mm
04:52 PM 75.9°F24.4°C 69.7°F20.9°C 81% Calm Calm -- 29.77 in1008.1 mb 0.00 in0.0 mm 0.00 in0.0 mm 0.00 in0.0 mm
04:53 PM 75.9°F24.4°C 69.7°F20.9°C 81% Calm Calm -- 29.77 in1008.1 mb 0.00 in0.0 mm 0.00 in0.0 mm 0.00 in0.0 mm
04:54 PM 75.9°F24.4°C 69.7°F20.9°C 81% Calm Calm -- 29.77 in1008.1 mb 0.00 in0.0 mm 0.00 in0.0 mm 0.00 in0.0 mm
04:55 PM 75.9°F24.4°C 69.7°F20.9°C 81% Calm Calm -- 29.77 in1008.1 mb 0.00 in0.0 mm 0.00 in0.0 mm 0.00 in0.0 mm
04:56 PM 75.9°F24.4°C 69.7°F20.9°C 81% Calm Calm -- 29.77 in1008.1 mb 0.00 in0.0 mm 0.00 in0.0 mm 0.00 in0.0 mm
04:57 PM 75.9°F24.4°C 69.7°F20.9°C 81% Calm Calm -- 29.77 in1008.1 mb 0.00 in0.0 mm 0.00 in0.0 mm 0.00 in0.0 mm
04:58 PM 75.9°F24.4°C 69.7°F20.9°C 81% Calm Calm -- 29.77 in1008.1 mb 0.00 in0.0 mm 0.00 in0.0 mm 0.00 in0.0 mm
04:59 PM 75.9°F24.4°C 69.7°F20.9°C 81% Calm Calm -- 29.77 in1008.1 mb 0.00 in0.0 mm 0.00 in0.0 mm 0.00 in0.0 mm
05:00 PM 75.9°F24.4°C 69.3°F20.7°C 80% Calm Calm -- 29.77 in1008.1 mb 0.00 in0.0 mm 0.00 in0.0 mm 0.00 in0.0 mm
05:01 PM 75.9°F24.4°C 69.3°F20.7°C 80% Calm Calm -- 29.76 in1007.8 mb 0.00 in0.0 mm 0.00 in0.0 mm 0.00 in0.0 mm
05:02 PM 75.9°F24.4°C 69.3°F20.7°C 80% Calm Calm -- 29.76 in1007.8 mb 0.00 in0.0 mm 0.00 in0.0 mm 0.00 in0.0 mm
05:03 PM 75.9°F24.4°C 69.3°F20.7°C 80% Calm Calm -- 29.76 in1007.8 mb 0.00 in0.0 mm 0.00 in0.0 mm 0.00 in0.0 mm
05:04 PM 75.9°F24.4°C 69.3°F20.7°C 80% Calm Calm -- 29.76 in1007.8 mb 0.00 in0.0 mm 0.00 in0.0 mm 0.00 in0.0 mm
05:05 PM 75.9°F24.4°C 69.3°F20.7°C 80% Calm Calm -- 29.76 in1007.8 mb 0.00 in0.0 mm 0.00 in0.0 mm 0.00 in0.0 mm
05:06 PM 75.9°F24.4°C 69.3°F20.7°C 80% Calm Calm -- 29.76 in1007.8 mb 0.00 in0.0 mm 0.00 in0.0 mm 0.00 in0.0 mm
05:07 PM 75.9°F24.4°C 69.3°F20.7°C 80% Calm Calm -- 29.76 in1007.8 mb 0.00 in0.0 mm 0.00 in0.0 mm 0.00 in0.0 mm
05:08 PM 75.9°F24.4°C 69.3°F20.7°C 80% Calm Calm -- 29.76 in1007.8 mb 0.00 in0.0 mm 0.00 in0.0 mm 0.00 in0.0 mm
05:09 PM 75.9°F24.4°C 69.3°F20.7°C 80% Calm Calm -- 29.76 in1007.8 mb 0.00 in0.0 mm 0.00 in0.0 mm 0.00 in0.0 mm
05:10 PM 75.9°F24.4°C 69.3°F20.7°C 80% Calm Calm -- 29.76 in1007.8 mb 0.00 in0.0 mm 0.00 in0.0 mm 0.00 in0.0 mm
05:11 PM 75.9°F24.4°C 69.3°F20.7°C 80% Calm Calm -- 29.76 in1007.8 mb 0.00 in0.0 mm 0.00 in0.0 mm 0.00 in0.0 mm
05:12 PM 75.9°F24.4°C 69.3°F20.7°C 80% Calm Calm -- 29.76 in1007.8 mb 0.00 in0.0 mm 0.00 in0.0 mm 0.00 in0.0 mm
05:13 PM 75.9°F24.4°C 69.3°F20.7°C 80% Calm Calm -- 29.77 in1008.1 mb 0.00 in0.0 mm 0.00 in0.0 mm 0.00 in0.0 mm
05:14 PM 75.9°F24.4°C 69.3°F20.7°C 80% Calm Calm -- 29.77 in1008.1 mb 0.00 in0.0 mm 0.00 in0.0 mm 0.00 in0.0 mm
05:15 PM 75.9°F24.4°C 69.3°F20.7°C 80% Calm Calm -- 29.77 in1008.1 mb 0.00 in0.0 mm 0.00 in0.0 mm 0.00 in0.0 mm
05:16 PM 75.9°F24.4°C 69.3°F20.7°C 80% Calm Calm -- 29.77 in1008.1 mb 0.00 in0.0 mm 0.00 in0.0 mm 0.00 in0.0 mm
05:17 PM 75.9°F24.4°C 69.3°F20.7°C 80% Calm Calm -- 29.77 in1008.1 mb 0.00 in0.0 mm 0.00 in0.0 mm 0.00 in0.0 mm
05:18 PM 75.9°F24.4°C 69.3°F20.7°C 80% Calm Calm -- 29.77 in1008.1 mb 0.00 in0.0 mm 0.00 in0.0 mm 0.00 in0.0 mm
05:19 PM 75.9°F24.4°C 69.3°F20.7°C 80% Calm Calm -- 29.77 in1008.1 mb 0.00 in0.0 mm 0.00 in0.0 mm 0.00 in0.0 mm
05:20 PM 75.9°F24.4°C 69.3°F20.7°C 80% Calm Calm -- 29.77 in1008.1 mb 0.00 in0.0 mm 0.00 in0.0 mm 0.00 in0.0 mm
05:21 PM 75.9°F24.4°C 69.3°F20.7°C 80% Calm Calm -- 29.77 in1008.1 mb 0.00 in0.0 mm 0.00 in0.0 mm 0.00 in0.0 mm
05:22 PM 75.9°F24.4°C 69.3°F20.7°C 80% Calm Calm -- 29.77 in1008.1 mb 0.00 in0.0 mm 0.00 in0.0 mm 0.00 in0.0 mm
05:23 PM 75.9°F24.4°C 69.3°F20.7°C 80% Calm Calm -- 29.77 in1008.1 mb 0.00 in0.0 mm 0.00 in0.0 mm 0.00 in0.0 mm
05:24 PM 75.9°F24.4°C 69.3°F20.7°C 80% Calm Calm -- 29.77 in1008.1 mb 0.00 in0.0 mm 0.00 in0.0 mm 0.00 in0.0 mm
05:25 PM 75.9°F24.4°C 69.3°F20.7°C 80% Calm Calm -- 29.77 in1008.1 mb 0.00 in0.0 mm 0.00 in0.0 mm 0.00 in0.0 mm
05:26 PM 75.9°F24.4°C 69.3°F20.7°C 80% Calm Calm -- 29.77 in1008.1 mb 0.00 in0.0 mm 0.00 in0.0 mm 0.00 in0.0 mm
05:27 PM 75.9°F24.4°C 69.3°F20.7°C 80% Calm Calm -- 29.77 in1008.1 mb 0.00 in0.0 mm 0.00 in0.0 mm 0.00 in0.0 mm
05:28 PM 75.9°F24.4°C 69.3°F20.7°C 80% Calm Calm -- 29.77 in1008.1 mb 0.00 in0.0 mm 0.00 in0.0 mm 0.00 in0.0 mm
05:29 PM 75.9°F24.4°C 69.3°F20.7°C 80% Calm Calm -- 29.77 in1008.1 mb 0.00 in0.0 mm 0.00 in0.0 mm 0.00 in0.0 mm
05:30 PM 75.9°F24.4°C 69.3°F20.7°C 80% Calm Calm -- 29.77 in1008.1 mb 0.00 in0.0 mm 0.00 in0.0 mm 0.00 in0.0 mm
05:31 PM 75.9°F24.4°C 69.3°F20.7°C 80% Calm Calm -- 29.77 in1008.1 mb 0.00 in0.0 mm 0.00 in0.0 mm 0.00 in0.0 mm
05:32 PM 75.9°F24.4°C 69.3°F20.7°C 80% Calm Calm -- 29.77 in1008.1 mb 0.00 in0.0 mm 0.00 in0.0 mm 0.00 in0.0 mm
05:33 PM 75.9°F24.4°C 69.3°F20.7°C 80% Calm Calm -- 29.77 in1008.1 mb 0.00 in0.0 mm 0.00 in0.0 mm 0.00 in0.0 mm
05:34 PM 75.9°F24.4°C 69.3°F20.7°C 80% Calm Calm -- 29.77 in1008.1 mb 0.00 in0.0 mm 0.00 in0.0 mm 0.00 in0.0 mm
05:35 PM 75.9°F24.4°C 69.3°F20.7°C 80% Calm Calm -- 29.77 in1008.1 mb 0.00 in0.0 mm 0.00 in0.0 mm 0.00 in0.0 mm
05:36 PM 75.9°F24.4°C 68.9°F20.5°C 79% Calm Calm -- 29.77 in1008.1 mb 0.00 in0.0 mm 0.00 in0.0 mm 0.00 in0.0 mm
05:37 PM 75.9°F24.4°C 68.6°F20.3°C 78% Calm Calm -- 29.77 in1008.1 mb 0.00 in0.0 mm 0.00 in0.0 mm 0.00 in0.0 mm
05:38 PM 75.9°F24.4°C 68.9°F20.5°C 79% Calm Calm -- 29.77 in1008.1 mb 0.00 in0.0 mm 0.00 in0.0 mm 0.00 in0.0 mm
05:39 PM 75.9°F24.4°C 68.9°F20.5°C 79% Calm Calm -- 29.77 in1008.1 mb 0.00 in0.0 mm 0.00 in0.0 mm 0.00 in0.0 mm
05:40 PM 75.9°F24.4°C 68.9°F20.5°C 79% Calm Calm -- 29.77 in1008.1 mb 0.00 in0.0 mm 0.00 in0.0 mm 0.00 in0.0 mm
05:41 PM 75.9°F24.4°C 68.9°F20.5°C 79% Calm Calm -- 29.77 in1008.1 mb 0.00 in0.0 mm 0.00 in0.0 mm 0.00 in0.0 mm
05:42 PM 75.9°F24.4°C 68.9°F20.5°C 79% Calm Calm -- 29.77 in1008.1 mb 0.00 in0.0 mm 0.00 in0.0 mm 0.00 in0.0 mm
05:43 PM 75.9°F24.4°C 68.9°F20.5°C 79% Calm Calm -- 29.77 in1008.1 mb 0.00 in0.0 mm 0.00 in0.0 mm 0.00 in0.0 mm
05:44 PM 75.9°F24.4°C 68.9°F20.5°C 79% Calm Calm -- 29.77 in1008.1 mb 0.00 in0.0 mm 0.00 in0.0 mm 0.00 in0.0 mm
05:45 PM 75.9°F24.4°C 68.9°F20.5°C 79% Calm Calm -- 29.77 in1008.1 mb 0.00 in0.0 mm 0.00 in0.0 mm 0.00 in0.0 mm
05:46 PM 75.9°F24.4°C 68.9°F20.5°C 79% Calm Calm -- 29.77 in1008.1 mb 0.00 in0.0 mm 0.00 in0.0 mm 0.00 in0.0 mm
05:47 PM 75.9°F24.4°C 68.9°F20.5°C 79% Calm Calm -- 29.77 in1008.1 mb 0.00 in0.0 mm 0.00 in0.0 mm 0.00 in0.0 mm
05:48 PM 75.9°F24.4°C 68.9°F20.5°C 79% Calm Calm -- 29.77 in1008.1 mb 0.00 in0.0 mm 0.00 in0.0 mm 0.00 in0.0 mm
05:49 PM 75.9°F24.4°C 68.9°F20.5°C 79% Calm Calm -- 29.77 in1008.1 mb 0.00 in0.0 mm 0.00 in0.0 mm 0.00 in0.0 mm
05:50 PM 75.9°F24.4°C 68.9°F20.5°C 79% Calm Calm -- 29.77 in1008.1 mb 0.00 in0.0 mm 0.00 in0.0 mm 0.00 in0.0 mm
05:51 PM 75.9°F24.4°C 68.9°F20.5°C 79% Calm Calm -- 29.77 in1008.1 mb 0.00 in0.0 mm 0.00 in0.0 mm 0.00 in0.0 mm
05:52 PM 75.9°F24.4°C 68.9°F20.5°C 79% Calm Calm -- 29.77 in1008.1 mb 0.00 in0.0 mm 0.00 in0.0 mm 0.00 in0.0 mm
05:53 PM 75.9°F24.4°C 68.9°F20.5°C 79% Calm Calm -- 29.77 in1008.1 mb 0.00 in0.0 mm 0.00 in0.0 mm 0.00 in0.0 mm
05:54 PM 75.9°F24.4°C 68.9°F20.5°C 79% Calm Calm -- 29.77 in1008.1 mb 0.00 in0.0 mm 0.00 in0.0 mm 0.00 in0.0 mm
05:55 PM 75.9°F24.4°C 68.9°F20.5°C 79% Calm Calm -- 29.77 in1008.1 mb 0.00 in0.0 mm 0.00 in0.0 mm 0.00 in0.0 mm
05:56 PM 75.9°F24.4°C 68.9°F20.5°C 79% Calm Calm -- 29.77 in1008.1 mb 0.00 in0.0 mm 0.00 in0.0 mm 0.00 in0.0 mm
05:57 PM 75.9°F24.4°C 68.9°F20.5°C 79% Calm Calm -- 29.77 in1008.1 mb 0.00 in0.0 mm 0.00 in0.0 mm 0.00 in0.0 mm
05:58 PM 75.9°F24.4°C 68.9°F20.5°C 79% Calm Calm -- 29.77 in1008.1 mb 0.00 in0.0 mm 0.00 in0.0 mm 0.00 in0.0 mm
05:59 PM 75.9°F24.4°C 68.9°F20.5°C 79% Calm Calm -- 29.77 in1008.1 mb 0.00 in0.0 mm 0.00 in0.0 mm 0.00 in0.0 mm
06:00 PM 75.9°F24.4°C 68.9°F20.5°C 79% Calm Calm -- 29.77 in1008.1 mb 0.00 in0.0 mm 0.00 in0.0 mm 0.00 in0.0 mm
06:01 PM 75.9°F24.4°C 68.9°F20.5°C 79% Calm Calm -- 29.77 in1008.1 mb 0.00 in0.0 mm 0.00 in0.0 mm 0.00 in0.0 mm
06:02 PM 75.9°F24.4°C 68.9°F20.5°C 79% Calm Calm -- 29.77 in1008.1 mb 0.00 in0.0 mm 0.00 in0.0 mm 0.00 in0.0 mm
06:03 PM 75.9°F24.4°C 68.9°F20.5°C 79% Calm Calm -- 29.77 in1008.1 mb 0.00 in0.0 mm 0.00 in0.0 mm 0.00 in0.0 mm
06:04 PM 75.9°F24.4°C 68.9°F20.5°C 79% Calm Calm -- 29.77 in1008.1 mb 0.00 in0.0 mm 0.00 in0.0 mm 0.00 in0.0 mm
06:05 PM 75.9°F24.4°C 68.9°F20.5°C 79% Calm Calm -- 29.77 in1008.1 mb 0.00 in0.0 mm 0.00 in0.0 mm 0.00 in0.0 mm
06:06 PM 75.9°F24.4°C 68.9°F20.5°C 79% Calm Calm -- 29.77 in1008.1 mb 0.00 in0.0 mm 0.00 in0.0 mm 0.00 in0.0 mm
06:07 PM 75.9°F24.4°C 68.9°F20.5°C 79% Calm Calm -- 29.77 in1008.1 mb 0.00 in0.0 mm 0.00 in0.0 mm 0.00 in0.0 mm
06:08 PM 75.9°F24.4°C 68.9°F20.5°C 79% Calm Calm -- 29.77 in1008.1 mb 0.00 in0.0 mm 0.00 in0.0 mm 0.00 in0.0 mm
06:09 PM 75.9°F24.4°C 68.9°F20.5°C 79% Calm Calm -- 29.77 in1008.1 mb 0.00 in0.0 mm 0.00 in0.0 mm 0.00 in0.0 mm
06:10 PM 75.9°F24.4°C 68.9°F20.5°C 79% Calm Calm -- 29.77 in1008.1 mb 0.00 in0.0 mm 0.00 in0.0 mm 0.00 in0.0 mm
06:11 PM 75.9°F24.4°C 68.9°F20.5°C 79% Calm Calm -- 29.77 in1008.1 mb 0.00 in0.0 mm 0.00 in0.0 mm 0.00 in0.0 mm
06:12 PM 75.9°F24.4°C 68.9°F20.5°C 79% Calm Calm -- 29.77 in1008.1 mb 0.00 in0.0 mm 0.00 in0.0 mm 0.00 in0.0 mm
06:13 PM 75.9°F24.4°C 68.9°F20.5°C 79% Calm Calm -- 29.78 in1008.5 mb 0.00 in0.0 mm 0.00 in0.0 mm 0.00 in0.0 mm
06:14 PM 75.9°F24.4°C 68.9°F20.5°C 79% Calm Calm -- 29.78 in1008.5 mb 0.00 in0.0 mm 0.00 in0.0 mm 0.00 in0.0 mm
06:15 PM 75.9°F24.4°C 68.9°F20.5°C 79% Calm Calm -- 29.78 in1008.5 mb 0.00 in0.0 mm 0.00 in0.0 mm 0.00 in0.0 mm
06:16 PM 75.9°F24.4°C 68.9°F20.5°C 79% Calm Calm -- 29.78 in1008.5 mb 0.00 in0.0 mm 0.00 in0.0 mm 0.00 in0.0 mm
06:17 PM 75.9°F24.4°C 68.9°F20.5°C 79% Calm Calm -- 29.78 in1008.5 mb 0.00 in0.0 mm 0.00 in0.0 mm 0.00 in0.0 mm
06:18 PM 75.9°F24.4°C 68.9°F20.5°C 79% Calm Calm -- 29.78 in1008.5 mb 0.00 in0.0 mm 0.00 in0.0 mm 0.00 in0.0 mm
06:19 PM 75.9°F24.4°C 68.9°F20.5°C 79% Calm Calm -- 29.78 in1008.5 mb 0.00 in0.0 mm 0.00 in0.0 mm 0.00 in0.0 mm
06:20 PM 75.9°F24.4°C 68.9°F20.5°C 79% Calm Calm -- 29.78 in1008.5 mb 0.00 in0.0 mm 0.00 in0.0 mm 0.00 in0.0 mm
06:21 PM 75.9°F24.4°C 68.9°F20.5°C 79% Calm Calm -- 29.78 in1008.5 mb 0.00 in0.0 mm 0.00 in0.0 mm 0.00 in0.0 mm
06:22 PM 75.9°F24.4°C 68.9°F20.5°C 79% Calm Calm -- 29.78 in1008.5 mb 0.00 in0.0 mm 0.00 in0.0 mm 0.00 in0.0 mm
06:23 PM 75.9°F24.4°C 68.9°F20.5°C 79% Calm Calm -- 29.78 in1008.5 mb 0.00 in0.0 mm 0.00 in0.0 mm 0.00 in0.0 mm
06:24 PM 75.9°F24.4°C 68.9°F20.5°C 79% Calm Calm -- 29.78 in1008.5 mb 0.00 in0.0 mm 0.00 in0.0 mm 0.00 in0.0 mm
06:25 PM 76.1°F24.5°C 69.1°F20.6°C 79% Calm Calm -- 29.78 in1008.5 mb 0.00 in0.0 mm 0.00 in0.0 mm 0.00 in0.0 mm
06:26 PM 76.1°F24.5°C 69.1°F20.6°C 79% Calm Calm -- 29.79 in1008.8 mb 0.00 in0.0 mm 0.00 in0.0 mm 0.00 in0.0 mm
06:27 PM 76.1°F24.5°C 69.1°F20.6°C 79% Calm Calm -- 29.79 in1008.8 mb 0.00 in0.0 mm 0.00 in0.0 mm 0.00 in0.0 mm
06:28 PM 76.1°F24.5°C 69.1°F20.6°C 79% Calm Calm -- 29.79 in1008.8 mb 0.00 in0.0 mm 0.00 in0.0 mm 0.00 in0.0 mm
06:29 PM 76.1°F24.5°C 69.1°F20.6°C 79% Calm Calm -- 29.79 in1008.8 mb 0.00 in0.0 mm 0.00 in0.0 mm 0.00 in0.0 mm
06:30 PM 76.1°F24.5°C 69.1°F20.6°C 79% Calm Calm -- 29.79 in1008.8 mb 0.00 in0.0 mm 0.00 in0.0 mm 0.00 in0.0 mm
06:31 PM 76.1°F24.5°C 69.1°F20.6°C 79% Calm Calm -- 29.79 in1008.8 mb 0.00 in0.0 mm 0.00 in0.0 mm 0.00 in0.0 mm
06:32 PM 76.1°F24.5°C 69.1°F20.6°C 79% Calm Calm -- 29.79 in1008.8 mb 0.00 in0.0 mm 0.00 in0.0 mm 0.00 in0.0 mm
06:33 PM 76.1°F24.5°C 69.1°F20.6°C 79% Calm Calm -- 29.79 in1008.8 mb 0.00 in0.0 mm 0.00 in0.0 mm 0.00 in0.0 mm
06:34 PM 76.1°F24.5°C 69.1°F20.6°C 79% Calm Calm -- 29.79 in1008.8 mb 0.00 in0.0 mm 0.00 in0.0 mm 0.00 in0.0 mm
06:35 PM 76.1°F24.5°C 69.1°F20.6°C 79% Calm Calm -- 29.79 in1008.8 mb 0.00 in0.0 mm 0.00 in0.0 mm 0.00 in0.0 mm
06:36 PM 76.1°F24.5°C 68.7°F20.4°C 78% Calm Calm -- 29.79 in1008.8 mb 0.00 in0.0 mm 0.00 in0.0 mm 0.00 in0.0 mm
06:37 PM 76.1°F24.5°C 68.7°F20.4°C 78% Calm Calm -- 29.78 in1008.5 mb 0.00 in0.0 mm 0.00 in0.0 mm 0.00 in0.0 mm
06:38 PM 76.1°F24.5°C 68.7°F20.4°C 78% Calm Calm -- 29.78 in1008.5 mb 0.00 in0.0 mm 0.00 in0.0 mm 0.00 in0.0 mm
06:39 PM 76.1°F24.5°C 68.7°F20.4°C 78% Calm Calm -- 29.78 in1008.5 mb 0.00 in0.0 mm 0.00 in0.0 mm 0.00 in0.0 mm
06:40 PM 76.1°F24.5°C 68.7°F20.4°C 78% Calm Calm -- 29.78 in1008.5 mb 0.00 in0.0 mm 0.00 in0.0 mm 0.00 in0.0 mm
06:41 PM 76.1°F24.5°C 68.7°F20.4°C 78% Calm Calm -- 29.78 in1008.5 mb 0.00 in0.0 mm 0.00 in0.0 mm 0.00 in0.0 mm
06:42 PM 76.1°F24.5°C 68.7°F20.4°C 78% Calm Calm -- 29.78 in1008.5 mb 0.00 in0.0 mm 0.00 in0.0 mm 0.00 in0.0 mm
06:43 PM 76.1°F24.5°C 68.7°F20.4°C 78% Calm Calm -- 29.78 in1008.5 mb 0.00 in0.0 mm 0.00 in0.0 mm 0.00 in0.0 mm
06:44 PM 76.1°F24.5°C 68.7°F20.4°C 78% Calm Calm -- 29.78 in1008.5 mb 0.00 in0.0 mm 0.00 in0.0 mm 0.00 in0.0 mm
06:45 PM 76.1°F24.5°C 68.7°F20.4°C 78% Calm Calm -- 29.78 in1008.5 mb 0.00 in0.0 mm 0.00 in0.0 mm 0.00 in0.0 mm
06:46 PM 76.1°F24.5°C 68.7°F20.4°C 78% Calm Calm -- 29.78 in1008.5 mb 0.00 in0.0 mm 0.00 in0.0 mm 0.00 in0.0 mm
06:47 PM 76.1°F24.5°C 68.4°F20.2°C 77% Calm Calm -- 29.78 in1008.5 mb 0.00 in0.0 mm 0.00 in0.0 mm 0.00 in0.0 mm
06:48 PM 76.3°F24.6°C 69.3°F20.7°C 79% Calm Calm -- 29.78 in1008.5 mb 0.04 in1.0 mm 2.40 in61.0 mm 0.04 in1.0 mm
06:49 PM 76.5°F24.7°C 69.1°F20.6°C 78% Calm Calm -- 29.79 in1008.8 mb 0.04 in1.0 mm 0.00 in0.0 mm 0.04 in1.0 mm
06:50 PM 76.5°F24.7°C 69.1°F20.6°C 78% Calm Calm -- 29.79 in1008.8 mb 0.04 in1.0 mm 0.00 in0.0 mm 0.04 in1.0 mm
06:51 PM 76.6°F24.8°C 68.9°F20.5°C 77% Calm Calm -- 29.79 in1008.8 mb 0.05 in1.3 mm 0.60 in15.2 mm 0.05 in1.3 mm
06:52 PM 76.6°F24.8°C 68.9°F20.5°C 77% Calm Calm -- 29.79 in1008.8 mb 0.06 in1.5 mm 0.60 in15.2 mm 0.06 in1.5 mm
06:53 PM 76.6°F24.8°C 68.5°F20.3°C 76% Calm Calm -- 29.79 in1008.8 mb 0.06 in1.5 mm 0.00 in0.0 mm 0.06 in1.5 mm
06:54 PM 76.6°F24.8°C 68.9°F20.5°C 77% Calm Calm -- 29.79 in1008.8 mb 0.06 in1.5 mm 0.00 in0.0 mm 0.06 in1.5 mm
06:55 PM 76.8°F24.9°C 69.4°F20.8°C 78% Calm Calm -- 29.79 in1008.8 mb 0.06 in1.5 mm 0.00 in0.0 mm 0.06 in1.5 mm
06:56 PM 76.8°F24.9°C 69.8°F21.0°C 79% Calm Calm -- 29.79 in1008.8 mb 0.06 in1.5 mm 0.00 in0.0 mm 0.06 in1.5 mm
06:57 PM 76.8°F24.9°C 69.8°F21.0°C 79% Calm Calm -- 29.79 in1008.8 mb 0.06 in1.5 mm 0.00 in0.0 mm 0.06 in1.5 mm
06:58 PM 76.8°F24.9°C 69.4°F20.8°C 78% Calm Calm -- 29.79 in1008.8 mb 0.06 in1.5 mm 0.00 in0.0 mm 0.06 in1.5 mm
06:59 PM 76.8°F24.9°C 69.8°F21.0°C 79% Calm Calm -- 29.79 in1008.8 mb 0.06 in1.5 mm 0.00 in0.0 mm 0.06 in1.5 mm
07:00 PM 76.8°F24.9°C 69.4°F20.8°C 78% Calm Calm -- 29.79 in1008.8 mb 0.06 in1.5 mm 0.00 in0.0 mm 0.06 in1.5 mm
07:01 PM 76.8°F24.9°C 69.8°F21.0°C 79% Calm Calm -- 29.79 in1008.8 mb 0.06 in1.5 mm 0.00 in0.0 mm 0.06 in1.5 mm
07:02 PM 76.8°F24.9°C 70.2°F21.2°C 80% Calm Calm -- 29.79 in1008.8 mb 0.06 in1.5 mm 0.00 in0.0 mm 0.06 in1.5 mm
07:03 PM 76.8°F24.9°C 70.2°F21.2°C 80% Calm Calm -- 29.79 in1008.8 mb 0.06 in1.5 mm 0.00 in0.0 mm 0.06 in1.5 mm
07:04 PM 76.6°F24.8°C 69.6°F20.9°C 79% Calm Calm -- 29.79 in1008.8 mb 0.06 in1.5 mm 0.00 in0.0 mm 0.06 in1.5 mm
07:05 PM 76.6°F24.8°C 69.6°F20.9°C 79% Calm Calm -- 29.79 in1008.8 mb 0.06 in1.5 mm 0.00 in0.0 mm 0.06 in1.5 mm
07:06 PM 76.6°F24.8°C 69.6°F20.9°C 79% Calm Calm -- 29.79 in1008.8 mb 0.06 in1.5 mm 0.00 in0.0 mm 0.06 in1.5 mm
07:07 PM 76.6°F24.8°C 70.0°F21.1°C 80% Calm Calm -- 29.79 in1008.8 mb 0.06 in1.5 mm 0.00 in0.0 mm 0.06 in1.5 mm
07:08 PM 76.6°F24.8°C 69.6°F20.9°C 79% Calm Calm -- 29.79 in1008.8 mb 0.06 in1.5 mm 0.00 in0.0 mm 0.06 in1.5 mm
07:09 PM 76.6°F24.8°C 70.0°F21.1°C 80% Calm Calm -- 29.79 in1008.8 mb 0.06 in1.5 mm 0.00 in0.0 mm 0.06 in1.5 mm
07:10 PM 76.6°F24.8°C 70.4°F21.3°C 81% Calm Calm -- 29.79 in1008.8 mb 0.06 in1.5 mm 0.00 in0.0 mm 0.06 in1.5 mm
07:11 PM 76.6°F24.8°C 70.4°F21.3°C 81% Calm Calm -- 29.79 in1008.8 mb 0.06 in1.5 mm 0.00 in0.0 mm 0.06 in1.5 mm
07:12 PM 76.5°F24.7°C 69.4°F20.8°C 79% Calm Calm -- 29.79 in1008.8 mb 0.06 in1.5 mm 0.00 in0.0 mm 0.06 in1.5 mm
07:13 PM 76.5°F24.7°C 69.4°F20.8°C 79% Calm Calm -- 29.79 in1008.8 mb 0.06 in1.5 mm 0.00 in0.0 mm 0.06 in1.5 mm
07:14 PM 76.5°F24.7°C 69.8°F21.0°C 80% Calm Calm -- 29.79 in1008.8 mb 0.06 in1.5 mm 0.00 in0.0 mm 0.06 in1.5 mm
07:15 PM 76.5°F24.7°C 69.8°F21.0°C 80% Calm Calm -- 29.79 in1008.8 mb 0.06 in1.5 mm 0.00 in0.0 mm 0.06 in1.5 mm
07:16 PM 76.6°F24.8°C 70.4°F21.3°C 81% Calm Calm -- 29.79 in1008.8 mb 0.06 in1.5 mm 0.00 in0.0 mm 0.06 in1.5 mm
07:17 PM 76.6°F24.8°C 70.4°F21.3°C 81% Calm Calm -- 29.79 in1008.8 mb 0.06 in1.5 mm 0.00 in0.0 mm 0.06 in1.5 mm
07:18 PM 76.6°F24.8°C 70.4°F21.3°C 81% Calm Calm -- 29.79 in1008.8 mb 0.06 in1.5 mm 0.00 in0.0 mm 0.06 in1.5 mm
07:19 PM 76.6°F24.8°C 69.6°F20.9°C 79% Calm Calm -- 29.79 in1008.8 mb 0.06 in1.5 mm 0.00 in0.0 mm 0.06 in1.5 mm
07:20 PM 76.5°F24.7°C 69.1°F20.6°C 78% Calm Calm -- 29.79 in1008.8 mb 0.06 in1.5 mm 0.00 in0.0 mm 0.06 in1.5 mm
07:21 PM 76.5°F24.7°C 69.4°F20.8°C 79% Calm Calm -- 29.79 in1008.8 mb 0.06 in1.5 mm 0.00 in0.0 mm 0.06 in1.5 mm
07:22 PM 76.5°F24.7°C 69.8°F21.0°C 80% Calm Calm -- 29.79 in1008.8 mb 0.06 in1.5 mm 0.00 in0.0 mm 0.06 in1.5 mm
07:23 PM 76.5°F24.7°C 69.4°F20.8°C 79% Calm Calm -- 29.79 in1008.8 mb 0.06 in1.5 mm 0.00 in0.0 mm 0.06 in1.5 mm
07:24 PM 76.5°F24.7°C 69.8°F21.0°C 80% Calm Calm -- 29.79 in1008.8 mb 0.06 in1.5 mm 0.00 in0.0 mm 0.06 in1.5 mm
07:25 PM 76.6°F24.8°C 70.0°F21.1°C 80% Calm Calm -- 29.79 in1008.8 mb 0.06 in1.5 mm 0.00 in0.0 mm 0.06 in1.5 mm
07:26 PM 76.6°F24.8°C 70.0°F21.1°C 80% Calm Calm -- 29.79 in1008.8 mb 0.06 in1.5 mm 0.00 in0.0 mm 0.06 in1.5 mm
07:27 PM 76.6°F24.8°C 70.0°F21.1°C 80% Calm Calm -- 29.79 in1008.8 mb 0.06 in1.5 mm 0.00 in0.0 mm 0.06 in1.5 mm
07:28 PM 76.6°F24.8°C 70.0°F21.1°C 80% Calm Calm -- 29.79 in1008.8 mb 0.06 in1.5 mm 0.00 in0.0 mm 0.06 in1.5 mm
07:29 PM 76.6°F24.8°C 69.6°F20.9°C 79% Calm Calm -- 29.79 in1008.8 mb 0.06 in1.5 mm 0.00 in0.0 mm 0.06 in1.5 mm
07:30 PM 76.6°F24.8°C 70.0°F21.1°C 80% Calm Calm -- 29.79 in1008.8 mb 0.06 in1.5 mm 0.00 in0.0 mm 0.06 in1.5 mm
07:31 PM 76.6°F24.8°C 70.0°F21.1°C 80% Calm Calm -- 29.79 in1008.8 mb 0.06 in1.5 mm 0.00 in0.0 mm 0.06 in1.5 mm
07:32 PM 76.6°F24.8°C 70.0°F21.1°C 80% Calm Calm -- 29.79 in1008.8 mb 0.06 in1.5 mm 0.00 in0.0 mm 0.06 in1.5 mm
07:33 PM 76.6°F24.8°C 70.0°F21.1°C 80% Calm Calm -- 29.79 in1008.8 mb 0.06 in1.5 mm 0.00 in0.0 mm 0.06 in1.5 mm
07:34 PM 76.6°F24.8°C 70.0°F21.1°C 80% Calm Calm -- 29.79 in1008.8 mb 0.06 in1.5 mm 0.00 in0.0 mm 0.06 in1.5 mm
07:35 PM 76.6°F24.8°C 69.6°F20.9°C 79% Calm Calm -- 29.79 in1008.8 mb 0.06 in1.5 mm 0.00 in0.0 mm 0.06 in1.5 mm
07:36 PM 76.6°F24.8°C 69.6°F20.9°C 79% Calm Calm -- 29.79 in1008.8 mb 0.06 in1.5 mm 0.00 in0.0 mm 0.06 in1.5 mm
07:37 PM 76.6°F24.8°C 70.0°F21.1°C 80% Calm Calm -- 29.80 in1009.1 mb 0.06 in1.5 mm 0.00 in0.0 mm 0.06 in1.5 mm
07:38 PM 76.6°F24.8°C 70.0°F21.1°C 80% Calm Calm -- 29.80 in1009.1 mb 0.06 in1.5 mm 0.00 in0.0 mm 0.06 in1.5 mm
07:39 PM 76.6°F24.8°C 70.0°F21.1°C 80% Calm Calm -- 29.80 in1009.1 mb 0.06 in1.5 mm 0.00 in0.0 mm 0.06 in1.5 mm
07:40 PM 76.6°F24.8°C 70.0°F21.1°C 80% Calm Calm -- 29.80 in1009.1 mb 0.06 in1.5 mm 0.00 in0.0 mm 0.06 in1.5 mm
07:41 PM 76.6°F24.8°C 70.0°F21.1°C 80% Calm Calm -- 29.80 in1009.1 mb 0.06 in1.5 mm 0.00 in0.0 mm 0.06 in1.5 mm
07:42 PM 76.6°F24.8°C 70.0°F21.1°C 80% Calm Calm -- 29.80 in1009.1 mb 0.06 in1.5 mm 0.00 in0.0 mm 0.06 in1.5 mm
07:43 PM 76.6°F24.8°C 70.0°F21.1°C 80% Calm Calm -- 29.80 in1009.1 mb 0.06 in1.5 mm 0.00 in0.0 mm 0.06 in1.5 mm
07:44 PM 76.6°F24.8°C 70.0°F21.1°C 80% Calm Calm -- 29.80 in1009.1 mb 0.06 in1.5 mm 0.00 in0.0 mm 0.06 in1.5 mm
07:45 PM 76.6°F24.8°C 70.0°F21.1°C 80% Calm Calm -- 29.80 in1009.1 mb 0.06 in1.5 mm 0.00 in0.0 mm 0.06 in1.5 mm
07:46 PM 76.6°F24.8°C 70.0°F21.1°C 80% Calm Calm -- 29.80 in1009.1 mb 0.06 in1.5 mm 0.00 in0.0 mm 0.06 in1.5 mm
07:47 PM 76.6°F24.8°C 70.0°F21.1°C 80% Calm Calm -- 29.80 in1009.1 mb 0.06 in1.5 mm 0.00 in0.0 mm 0.06 in1.5 mm
07:48 PM 76.6°F24.8°C 70.0°F21.1°C 80% Calm Calm -- 29.80 in1009.1 mb 0.05 in1.3 mm 0.00 in0.0 mm 0.06 in1.5 mm
07:49 PM 76.6°F24.8°C 70.0°F21.1°C 80% Calm Calm -- 29.80 in1009.1 mb 0.02 in0.5 mm 0.00 in0.0 mm 0.06 in1.5 mm
07:50 PM 76.6°F24.8°C 70.0°F21.1°C 80% Calm Calm -- 29.80 in1009.1 mb 0.02 in0.5 mm 0.00 in0.0 mm 0.06 in1.5 mm
07:51 PM 76.6°F24.8°C 70.0°F21.1°C 80% Calm Calm -- 29.80 in1009.1 mb 0.01 in0.3 mm 0.00 in0.0 mm 0.06 in1.5 mm
07:52 PM 76.6°F24.8°C 70.0°F21.1°C 80% Calm Calm -- 29.80 in1009.1 mb 0.00 in0.0 mm 0.00 in0.0 mm 0.06 in1.5 mm
07:53 PM 76.6°F24.8°C 70.0°F21.1°C 80% Calm Calm -- 29.80 in1009.1 mb 0.00 in0.0 mm 0.00 in0.0 mm 0.06 in1.5 mm
07:54 PM 76.6°F24.8°C 70.0°F21.1°C 80% Calm Calm -- 29.80 in1009.1 mb 0.00 in0.0 mm 0.00 in0.0 mm 0.06 in1.5 mm
07:55 PM 76.6°F24.8°C 70.0°F21.1°C 80% Calm Calm -- 29.80 in1009.1 mb 0.00 in0.0 mm 0.00 in0.0 mm 0.06 in1.5 mm
07:56 PM 76.6°F24.8°C 69.6°F20.9°C 79% Calm Calm -- 29.80 in1009.1 mb 0.00 in0.0 mm 0.00 in0.0 mm 0.06 in1.5 mm
07:57 PM 76.6°F24.8°C 70.0°F21.1°C 80% Calm Calm -- 29.80 in1009.1 mb 0.00 in0.0 mm 0.00 in0.0 mm 0.06 in1.5 mm
07:58 PM 76.6°F24.8°C 70.0°F21.1°C 80% Calm Calm -- 29.80 in1009.1 mb 0.00 in0.0 mm 0.00 in0.0 mm 0.06 in1.5 mm
07:59 PM 76.6°F24.8°C 70.0°F21.1°C 80% Calm Calm -- 29.80 in1009.1 mb 0.00 in0.0 mm 0.00 in0.0 mm 0.06 in1.5 mm
08:00 PM 76.6°F24.8°C 70.0°F21.1°C 80% Calm Calm -- 29.80 in1009.1 mb 0.00 in0.0 mm 0.00 in0.0 mm 0.06 in1.5 mm
08:01 PM 76.6°F24.8°C 70.0°F21.1°C 80% Calm Calm -- 29.80 in1009.1 mb 0.00 in0.0 mm 0.00 in0.0 mm 0.06 in1.5 mm
08:02 PM 76.6°F24.8°C 70.0°F21.1°C 80% Calm Calm -- 29.80 in1009.1 mb 0.00 in0.0 mm 0.00 in0.0 mm 0.06 in1.5 mm
08:03 PM 76.6°F24.8°C 70.0°F21.1°C 80% Calm Calm -- 29.80 in1009.1 mb 0.00 in0.0 mm 0.00 in0.0 mm 0.06 in1.5 mm
08:04 PM 76.6°F24.8°C 70.0°F21.1°C 80% Calm Calm -- 29.80 in1009.1 mb 0.00 in0.0 mm 0.00 in0.0 mm 0.06 in1.5 mm
08:05 PM 76.6°F24.8°C 70.0°F21.1°C 80% Calm Calm -- 29.80 in1009.1 mb 0.00 in0.0 mm 0.00 in0.0 mm 0.06 in1.5 mm
08:06 PM 76.6°F24.8°C 70.0°F21.1°C 80% Calm Calm -- 29.80 in1009.1 mb 0.00 in0.0 mm 0.00 in0.0 mm 0.06 in1.5 mm
08:07 PM 76.6°F24.8°C 70.0°F21.1°C 80% Calm Calm -- 29.80 in1009.1 mb 0.00 in0.0 mm 0.00 in0.0 mm 0.06 in1.5 mm
08:08 PM 76.6°F24.8°C 70.0°F21.1°C 80% Calm Calm -- 29.80 in1009.1 mb 0.00 in0.0 mm 0.00 in0.0 mm 0.06 in1.5 mm
08:09 PM 76.6°F24.8°C 70.0°F21.1°C 80% Calm Calm -- 29.80 in1009.1 mb 0.00 in0.0 mm 0.00 in0.0 mm 0.06 in1.5 mm
08:10 PM 76.6°F24.8°C 70.0°F21.1°C 80% Calm Calm -- 29.80 in1009.1 mb 0.00 in0.0 mm 0.00 in0.0 mm 0.06 in1.5 mm
08:11 PM 76.6°F24.8°C 70.0°F21.1°C 80% Calm Calm -- 29.80 in1009.1 mb 0.00 in0.0 mm 0.00 in0.0 mm 0.06 in1.5 mm
08:12 PM 76.6°F24.8°C 70.0°F21.1°C 80% Calm Calm -- 29.80 in1009.1 mb 0.00 in0.0 mm 0.00 in0.0 mm 0.06 in1.5 mm
08:13 PM 76.6°F24.8°C 70.0°F21.1°C 80% Calm Calm -- 29.81 in1009.5 mb 0.00 in0.0 mm 0.00 in0.0 mm 0.06 in1.5 mm
08:14 PM 76.6°F24.8°C 70.0°F21.1°C 80% Calm Calm -- 29.81 in1009.5 mb 0.00 in0.0 mm 0.00 in0.0 mm 0.06 in1.5 mm
08:15 PM 76.6°F24.8°C 70.0°F21.1°C 80% Calm Calm -- 29.81 in1009.5 mb 0.00 in0.0 mm 0.00 in0.0 mm 0.06 in1.5 mm
08:16 PM 76.6°F24.8°C 70.0°F21.1°C 80% Calm Calm -- 29.81 in1009.5 mb 0.00 in0.0 mm 0.00 in0.0 mm 0.06 in1.5 mm
08:17 PM 76.6°F24.8°C 70.0°F21.1°C 80% Calm Calm -- 29.81 in1009.5 mb 0.00 in0.0 mm 0.00 in0.0 mm 0.06 in1.5 mm
08:18 PM 76.6°F24.8°C 70.0°F21.1°C 80% Calm Calm -- 29.81 in1009.5 mb 0.00 in0.0 mm 0.00 in0.0 mm 0.06 in1.5 mm
08:19 PM 76.6°F24.8°C 70.0°F21.1°C 80% Calm Calm -- 29.81 in1009.5 mb 0.00 in0.0 mm 0.00 in0.0 mm 0.06 in1.5 mm
08:20 PM 76.6°F24.8°C 70.0°F21.1°C 80% Calm Calm -- 29.81 in1009.5 mb 0.00 in0.0 mm 0.00 in0.0 mm 0.06 in1.5 mm
08:21 PM 76.6°F24.8°C 70.0°F21.1°C 80% Calm Calm -- 29.81 in1009.5 mb 0.00 in0.0 mm 0.00 in0.0 mm 0.06 in1.5 mm
08:22 PM 76.6°F24.8°C 70.0°F21.1°C 80% Calm Calm -- 29.81 in1009.5 mb 0.00 in0.0 mm 0.00 in0.0 mm 0.06 in1.5 mm
08:23 PM 76.6°F24.8°C 70.0°F21.1°C 80% Calm Calm -- 29.81 in1009.5 mb 0.00 in0.0 mm 0.00 in0.0 mm 0.06 in1.5 mm
08:24 PM 76.6°F24.8°C 70.0°F21.1°C 80% Calm Calm -- 29.81 in1009.5 mb 0.00 in0.0 mm 0.00 in0.0 mm 0.06 in1.5 mm
08:25 PM 76.6°F24.8°C 70.0°F21.1°C 80% Calm Calm -- 29.81 in1009.5 mb 0.00 in0.0 mm 0.00 in0.0 mm 0.06 in1.5 mm
08:26 PM 76.6°F24.8°C 70.0°F21.1°C 80% Calm Calm -- 29.81 in1009.5 mb 0.00 in0.0 mm 0.00 in0.0 mm 0.06 in1.5 mm
08:27 PM 76.6°F24.8°C 70.0°F21.1°C 80% Calm Calm -- 29.81 in1009.5 mb 0.00 in0.0 mm 0.00 in0.0 mm 0.06 in1.5 mm
08:28 PM 76.6°F24.8°C 70.0°F21.1°C 80% Calm Calm -- 29.81 in1009.5 mb 0.00 in0.0 mm 0.00 in0.0 mm 0.06 in1.5 mm
08:29 PM 76.6°F24.8°C 70.0°F21.1°C 80% Calm Calm -- 29.81 in1009.5 mb 0.00 in0.0 mm 0.00 in0.0 mm 0.06 in1.5 mm
08:30 PM 76.6°F24.8°C 70.0°F21.1°C 80% Calm Calm -- 29.81 in1009.5 mb 0.00 in0.0 mm 0.00 in0.0 mm 0.06 in1.5 mm
08:31 PM 76.6°F24.8°C 70.0°F21.1°C 80% Calm Calm -- 29.81 in1009.5 mb 0.00 in0.0 mm 0.00 in0.0 mm 0.06 in1.5 mm
08:32 PM 76.6°F24.8°C 70.0°F21.1°C 80% Calm Calm -- 29.81 in1009.5 mb 0.00 in0.0 mm 0.00 in0.0 mm 0.06 in1.5 mm
08:33 PM 76.6°F24.8°C 70.0°F21.1°C 80% Calm Calm -- 29.81 in1009.5 mb 0.00 in0.0 mm 0.00 in0.0 mm 0.06 in1.5 mm
08:34 PM 76.6°F24.8°C 70.0°F21.1°C 80% Calm Calm -- 29.81 in1009.5 mb 0.00 in0.0 mm 0.00 in0.0 mm 0.06 in1.5 mm
08:35 PM 76.6°F24.8°C 70.0°F21.1°C 80% Calm Calm -- 29.81 in1009.5 mb 0.00 in0.0 mm 0.00 in0.0 mm 0.06 in1.5 mm
08:36 PM 76.6°F24.8°C 70.0°F21.1°C 80% Calm Calm -- 29.81 in1009.5 mb 0.00 in0.0 mm 0.00 in0.0 mm 0.06 in1.5 mm
08:37 PM 76.6°F24.8°C 70.0°F21.1°C 80% Calm Calm -- 29.81 in1009.5 mb 0.00 in0.0 mm 0.00 in0.0 mm 0.06 in1.5 mm
08:38 PM 76.6°F24.8°C 70.0°F21.1°C 80% Calm Calm -- 29.81 in1009.5 mb 0.00 in0.0 mm 0.00 in0.0 mm 0.06 in1.5 mm
08:39 PM 76.6°F24.8°C 70.0°F21.1°C 80% Calm Calm -- 29.81 in1009.5 mb 0.00 in0.0 mm 0.00 in0.0 mm 0.06 in1.5 mm
08:40 PM 76.6°F24.8°C 70.0°F21.1°C 80% Calm Calm -- 29.81 in1009.5 mb 0.00 in0.0 mm 0.00 in0.0 mm 0.06 in1.5 mm
08:41 PM 76.6°F24.8°C 70.0°F21.1°C 80% Calm Calm -- 29.81 in1009.5 mb 0.00 in0.0 mm 0.00 in0.0 mm 0.06 in1.5 mm
08:42 PM 76.6°F24.8°C 70.0°F21.1°C 80% Calm Calm -- 29.81 in1009.5 mb 0.00 in0.0 mm 0.00 in0.0 mm 0.06 in1.5 mm
08:43 PM 76.6°F24.8°C 70.0°F21.1°C 80% Calm Calm -- 29.81 in1009.5 mb 0.00 in0.0 mm 0.00 in0.0 mm 0.06 in1.5 mm
08:44 PM 76.6°F24.8°C 70.0°F21.1°C 80% Calm Calm -- 29.81 in1009.5 mb 0.00 in0.0 mm 0.00 in0.0 mm 0.06 in1.5 mm
08:45 PM 76.6°F24.8°C 70.0°F21.1°C 80% Calm Calm -- 29.81 in1009.5 mb 0.00 in0.0 mm 0.00 in0.0 mm 0.06 in1.5 mm
08:46 PM 76.6°F24.8°C 70.0°F21.1°C 80% Calm Calm -- 29.81 in1009.5 mb 0.00 in0.0 mm 0.00 in0.0 mm 0.06 in1.5 mm
08:47 PM 76.6°F24.8°C 70.0°F21.1°C 80% Calm Calm -- 29.81 in1009.5 mb 0.00 in0.0 mm 0.00 in0.0 mm 0.06 in1.5 mm
08:48 PM 76.8°F24.9°C 70.2°F21.2°C 80% Calm Calm -- 29.81 in1009.5 mb 0.00 in0.0 mm 0.00 in0.0 mm 0.06 in1.5 mm
08:49 PM 76.8°F24.9°C 70.2°F21.2°C 80% Calm Calm -- 29.81 in1009.5 mb 0.00 in0.0 mm 0.00 in0.0 mm 0.06 in1.5 mm
08:50 PM 76.8°F24.9°C 70.2°F21.2°C 80% Calm Calm -- 29.81 in1009.5 mb 0.00 in0.0 mm 0.00 in0.0 mm 0.06 in1.5 mm
08:51 PM 76.8°F24.9°C 70.2°F21.2°C 80% Calm Calm -- 29.81 in1009.5 mb 0.00 in0.0 mm 0.00 in0.0 mm 0.06 in1.5 mm
08:52 PM 76.8°F24.9°C 70.2°F21.2°C 80% Calm Calm -- 29.81 in1009.5 mb 0.00 in0.0 mm 0.00 in0.0 mm 0.06 in1.5 mm
08:53 PM 76.8°F24.9°C 70.2°F21.2°C 80% Calm Calm -- 29.81 in1009.5 mb 0.00 in0.0 mm 0.00 in0.0 mm 0.06 in1.5 mm
08:54 PM 76.8°F24.9°C 70.2°F21.2°C 80% Calm Calm -- 29.81 in1009.5 mb 0.00 in0.0 mm 0.00 in0.0 mm 0.06 in1.5 mm
08:55 PM 76.8°F24.9°C 70.2°F21.2°C 80% Calm Calm -- 29.81 in1009.5 mb 0.00 in0.0 mm 0.00 in0.0 mm 0.06 in1.5 mm
08:56 PM 76.8°F24.9°C 70.2°F21.2°C 80% Calm Calm -- 29.81 in1009.5 mb 0.00 in0.0 mm 0.00 in0.0 mm 0.06 in1.5 mm
08:57 PM 76.8°F24.9°C 70.2°F21.2°C 80% Calm Calm -- 29.81 in1009.5 mb 0.00 in0.0 mm 0.00 in0.0 mm 0.06 in1.5 mm
08:58 PM 76.8°F24.9°C 70.2°F21.2°C 80% Calm Calm -- 29.81 in1009.5 mb 0.00 in0.0 mm 0.00 in0.0 mm 0.06 in1.5 mm
08:59 PM 76.8°F24.9°C 70.2°F21.2°C 80% Calm Calm -- 29.81 in1009.5 mb 0.00 in0.0 mm 0.00 in0.0 mm 0.06 in1.5 mm
09:00 PM 76.8°F24.9°C 70.2°F21.2°C 80% Calm Calm -- 29.81 in1009.5 mb 0.00 in0.0 mm 0.00 in0.0 mm 0.06 in1.5 mm
09:01 PM 76.8°F24.9°C 70.2°F21.2°C 80% Calm Calm -- 29.81 in1009.5 mb 0.00 in0.0 mm 0.00 in0.0 mm 0.06 in1.5 mm
09:02 PM 76.8°F24.9°C 70.2°F21.2°C 80% Calm Calm -- 29.81 in1009.5 mb 0.00 in0.0 mm 0.00 in0.0 mm 0.06 in1.5 mm
09:03 PM 76.8°F24.9°C 70.2°F21.2°C 80% Calm Calm -- 29.81 in1009.5 mb 0.00 in0.0 mm 0.00 in0.0 mm 0.06 in1.5 mm
09:04 PM 76.8°F24.9°C 70.2°F21.2°C 80% Calm Calm -- 29.81 in1009.5 mb 0.00 in0.0 mm 0.00 in0.0 mm 0.06 in1.5 mm
09:05 PM 76.8°F24.9°C 70.2°F21.2°C 80% Calm Calm -- 29.81 in1009.5 mb 0.00 in0.0 mm 0.00 in0.0 mm 0.06 in1.5 mm
09:06 PM 76.8°F24.9°C 70.2°F21.2°C 80% Calm Calm -- 29.81 in1009.5 mb 0.00 in0.0 mm 0.00 in0.0 mm 0.06 in1.5 mm
09:07 PM 76.8°F24.9°C 69.8°F21.0°C 79% Calm Calm -- 29.81 in1009.5 mb 0.00 in0.0 mm 0.00 in0.0 mm 0.06 in1.5 mm
09:08 PM 76.8°F24.9°C 69.8°F21.0°C 79% Calm Calm -- 29.81 in1009.5 mb 0.00 in0.0 mm 0.00 in0.0 mm 0.06 in1.5 mm
09:09 PM 76.8°F24.9°C 69.8°F21.0°C 79% Calm Calm -- 29.81 in1009.5 mb 0.00 in0.0 mm 0.00 in0.0 mm 0.06 in1.5 mm
09:10 PM 76.8°F24.9°C 69.8°F21.0°C 79% Calm Calm -- 29.81 in1009.5 mb 0.00 in0.0 mm 0.00 in0.0 mm 0.06 in1.5 mm
09:11 PM 76.8°F24.9°C 69.8°F21.0°C 79% Calm Calm -- 29.81 in1009.5 mb 0.00 in0.0 mm 0.00 in0.0 mm 0.06 in1.5 mm
09:12 PM 76.8°F24.9°C 69.8°F21.0°C 79% Calm Calm -- 29.81 in1009.5 mb 0.00 in0.0 mm 0.00 in0.0 mm 0.06 in1.5 mm
09:13 PM 76.8°F24.9°C 69.8°F21.0°C 79% Calm Calm -- 29.81 in1009.5 mb 0.00 in0.0 mm 0.00 in0.0 mm 0.06 in1.5 mm
09:14 PM 76.8°F24.9°C 69.8°F21.0°C 79% Calm Calm -- 29.81 in1009.5 mb 0.00 in0.0 mm 0.00 in0.0 mm 0.06 in1.5 mm
09:15 PM 76.8°F24.9°C 69.8°F21.0°C 79% Calm Calm -- 29.81 in1009.5 mb 0.00 in0.0 mm 0.00 in0.0 mm 0.06 in1.5 mm
09:16 PM 76.8°F24.9°C 69.8°F21.0°C 79% Calm Calm -- 29.81 in1009.5 mb 0.00 in0.0 mm 0.00 in0.0 mm 0.06 in1.5 mm
09:17 PM 76.8°F24.9°C 69.8°F21.0°C 79% Calm Calm -- 29.81 in1009.5 mb 0.00 in0.0 mm 0.00 in0.0 mm 0.06 in1.5 mm
09:18 PM 76.8°F24.9°C 69.8°F21.0°C 79% Calm Calm -- 29.81 in1009.5 mb 0.00 in0.0 mm 0.00 in0.0 mm 0.06 in1.5 mm
09:19 PM 76.8°F24.9°C 69.8°F21.0°C 79% Calm Calm -- 29.81 in1009.5 mb 0.00 in0.0 mm 0.00 in0.0 mm 0.06 in1.5 mm
09:20 PM 76.8°F24.9°C 69.8°F21.0°C 79% Calm Calm -- 29.81 in1009.5 mb 0.00 in0.0 mm 0.00 in0.0 mm 0.06 in1.5 mm
09:21 PM 76.8°F24.9°C 69.8°F21.0°C 79% Calm Calm -- 29.81 in1009.5 mb 0.00 in0.0 mm 0.00 in0.0 mm 0.06 in1.5 mm
09:22 PM 76.8°F24.9°C 69.8°F21.0°C 79% Calm Calm -- 29.81 in1009.5 mb 0.00 in0.0 mm 0.00 in0.0 mm 0.06 in1.5 mm
09:23 PM 76.8°F24.9°C 69.8°F21.0°C 79% Calm Calm -- 29.81 in1009.5 mb 0.00 in0.0 mm 0.00 in0.0 mm 0.06 in1.5 mm
09:24 PM 76.8°F24.9°C 69.8°F21.0°C 79% Calm Calm -- 29.81 in1009.5 mb 0.00 in0.0 mm 0.00 in0.0 mm 0.06 in1.5 mm
09:25 PM 76.8°F24.9°C 69.8°F21.0°C 79% Calm Calm -- 29.81 in1009.5 mb 0.00 in0.0 mm 0.00 in0.0 mm 0.06 in1.5 mm
09:26 PM 76.8°F24.9°C 69.8°F21.0°C 79% Calm Calm -- 29.81 in1009.5 mb 0.00 in0.0 mm 0.00 in0.0 mm 0.06 in1.5 mm
09:27 PM 76.8°F24.9°C 69.8°F21.0°C 79% Calm Calm -- 29.81 in1009.5 mb 0.00 in0.0 mm 0.00 in0.0 mm 0.06 in1.5 mm
09:28 PM 76.8°F24.9°C 69.8°F21.0°C 79% Calm Calm -- 29.81 in1009.5 mb 0.00 in0.0 mm 0.00 in0.0 mm 0.06 in1.5 mm
09:29 PM 76.8°F24.9°C 69.4°F20.8°C 78% Calm Calm -- 29.81 in1009.5 mb 0.00 in0.0 mm 0.00 in0.0 mm 0.06 in1.5 mm
09:30 PM 76.8°F24.9°C 69.4°F20.8°C 78% Calm Calm -- 29.81 in1009.5 mb 0.00 in0.0 mm 0.00 in0.0 mm 0.06 in1.5 mm
09:31 PM 76.8°F24.9°C 69.4°F20.8°C 78% Calm Calm -- 29.81 in1009.5 mb 0.00 in0.0 mm 0.00 in0.0 mm 0.06 in1.5 mm
09:32 PM 76.8°F24.9°C 69.4°F20.8°C 78% Calm Calm -- 29.81 in1009.5 mb 0.00 in0.0 mm 0.00 in0.0 mm 0.06 in1.5 mm
09:33 PM 76.8°F24.9°C 69.4°F20.8°C 78% Calm Calm -- 29.81 in1009.5 mb 0.00 in0.0 mm 0.00 in0.0 mm 0.06 in1.5 mm
09:34 PM 76.8°F24.9°C 69.4°F20.8°C 78% Calm Calm -- 29.81 in1009.5 mb 0.00 in0.0 mm 0.00 in0.0 mm 0.06 in1.5 mm
09:35 PM 76.8°F24.9°C 69.4°F20.8°C 78% Calm Calm -- 29.81 in1009.5 mb 0.00 in0.0 mm 0.00 in0.0 mm 0.06 in1.5 mm
09:36 PM 76.8°F24.9°C 69.4°F20.8°C 78% Calm Calm -- 29.81 in1009.5 mb 0.00 in0.0 mm 0.00 in0.0 mm 0.06 in1.5 mm
09:37 PM 76.8°F24.9°C 69.4°F20.8°C 78% Calm Calm -- 29.81 in1009.5 mb 0.00 in0.0 mm 0.00 in0.0 mm 0.06 in1.5 mm
09:38 PM 76.8°F24.9°C 69.4°F20.8°C 78% Calm Calm -- 29.81 in1009.5 mb 0.00 in0.0 mm 0.00 in0.0 mm 0.06 in1.5 mm
09:39 PM 76.8°F24.9°C 69.4°F20.8°C 78% Calm Calm -- 29.81 in1009.5 mb 0.00 in0.0 mm 0.00 in0.0 mm 0.06 in1.5 mm
09:40 PM 76.8°F24.9°C 69.4°F20.8°C 78% Calm Calm -- 29.81 in1009.5 mb 0.00 in0.0 mm 0.00 in0.0 mm 0.06 in1.5 mm
09:41 PM 77.2°F25.1°C 70.1°F21.2°C 79% Calm Calm 1.7 mph2.7 kmh 29.81 in1009.5 mb 0.00 in0.0 mm 0.00 in0.0 mm 0.06 in1.5 mm
09:42 PM 77.2°F25.1°C 71.6°F22.0°C 83% 5.8 mph ESE9.3 kmh ESE 9.4 mph15.1 kmh 29.81 in1009.5 mb 0.00 in0.0 mm 0.00 in0.0 mm 0.06 in1.5 mm
09:43 PM 76.5°F24.7°C 72.0°F22.2°C 86% 4.2 mph SSW6.8 kmh SSW 9.4 mph15.1 kmh 29.81 in1009.5 mb 0.00 in0.0 mm 0.00 in0.0 mm 0.06 in1.5 mm
09:44 PM 75.6°F24.2°C 71.7°F22.1°C 88% 6.3 mph SSW10.1 kmh SSW 9.4 mph15.1 kmh 29.81 in1009.5 mb 0.00 in0.0 mm 0.00 in0.0 mm 0.06 in1.5 mm
09:45 PM 75.6°F24.2°C 71.7°F22.1°C 88% 4.7 mph SSW7.6 kmh SSW 9.4 mph15.1 kmh 29.81 in1009.5 mb 0.00 in0.0 mm 0.00 in0.0 mm 0.06 in1.5 mm
09:46 PM 74.8°F23.8°C 71.7°F22.1°C 90% 8.3 mph S13.4 kmh S 9.4 mph15.1 kmh 29.81 in1009.5 mb 0.00 in0.0 mm 0.00 in0.0 mm 0.06 in1.5 mm
09:47 PM 74.3°F23.5°C 71.2°F21.8°C 90% 4.7 mph SE7.6 kmh SE 9.4 mph15.1 kmh 29.81 in1009.5 mb 0.00 in0.0 mm 0.00 in0.0 mm 0.06 in1.5 mm
09:48 PM 74.3°F23.5°C 71.2°F21.8°C 90% 7.3 mph S11.7 kmh S 9.4 mph15.1 kmh 29.81 in1009.5 mb 0.00 in0.0 mm 0.00 in0.0 mm 0.06 in1.5 mm
09:49 PM 74.1°F23.4°C 71.0°F21.7°C 90% 4.7 mph SSE7.6 kmh SSE 9.4 mph15.1 kmh 29.81 in1009.5 mb 0.00 in0.0 mm 0.00 in0.0 mm 0.06 in1.5 mm
09:50 PM 73.9°F23.3°C 70.8°F21.6°C 90% 4.7 mph SSW7.6 kmh SSW 9.4 mph15.1 kmh 29.81 in1009.5 mb 0.00 in0.0 mm 0.00 in0.0 mm 0.06 in1.5 mm
09:51 PM 73.8°F23.2°C 71.0°F21.7°C 91% 6.3 mph SSE10.1 kmh SSE 9.4 mph15.1 kmh 29.81 in1009.5 mb 0.00 in0.0 mm 0.00 in0.0 mm 0.06 in1.5 mm
09:52 PM 73.8°F23.2°C 71.0°F21.7°C 91% 4.2 mph SW6.8 kmh SW 8.3 mph13.4 kmh 29.81 in1009.5 mb 0.00 in0.0 mm 0.00 in0.0 mm 0.06 in1.5 mm
09:53 PM 73.8°F23.2°C 71.0°F21.7°C 91% 5.3 mph SSW8.5 kmh SSW 8.3 mph13.4 kmh 29.81 in1009.5 mb 0.00 in0.0 mm 0.00 in0.0 mm 0.06 in1.5 mm
09:54 PM 73.8°F23.2°C 71.0°F21.7°C 91% 6.3 mph S10.1 kmh S 8.3 mph13.4 kmh 29.81 in1009.5 mb 0.00 in0.0 mm 0.00 in0.0 mm 0.06 in1.5 mm
09:55 PM 73.6°F23.1°C 70.8°F21.6°C 91% 3.2 mph ESE5.1 kmh ESE 8.3 mph13.4 kmh 29.81 in1009.5 mb 0.00 in0.0 mm 0.00 in0.0 mm 0.06 in1.5 mm
09:56 PM 73.6°F23.1°C 70.8°F21.6°C 91% 3.7 mph S6.0 kmh S 8.3 mph13.4 kmh 29.81 in1009.5 mb 0.00 in0.0 mm 0.00 in0.0 mm 0.06 in1.5 mm
09:57 PM 73.6°F23.1°C 70.8°F21.6°C 91% 6.3 mph S10.1 kmh S 8.3 mph13.4 kmh 29.81 in1009.5 mb 0.00 in0.0 mm 0.00 in0.0 mm 0.06 in1.5 mm
09:58 PM 73.6°F23.1°C 70.8°F21.6°C 91% 4.2 mph SE6.8 kmh SE 8.3 mph13.4 kmh 29.81 in1009.5 mb 0.00 in0.0 mm 0.00 in0.0 mm 0.06 in1.5 mm
09:59 PM 73.6°F23.1°C 70.8°F21.6°C 91% 4.7 mph E7.6 kmh E 8.3 mph13.4 kmh 29.81 in1009.5 mb 0.00 in0.0 mm 0.00 in0.0 mm 0.06 in1.5 mm
10:00 PM 73.4°F23.0°C 70.6°F21.4°C 91% 5.8 mph SSW9.3 kmh SSW 9.9 mph15.9 kmh 29.81 in1009.5 mb 0.00 in0.0 mm 0.00 in0.0 mm 0.06 in1.5 mm
10:01 PM 73.2°F22.9°C 70.4°F21.3°C 91% 5.8 mph S9.3 kmh S 9.9 mph15.9 kmh 29.81 in1009.5 mb 0.00 in0.0 mm 0.00 in0.0 mm 0.06 in1.5 mm
10:02 PM 73.0°F22.8°C 70.3°F21.3°C 91% 3.7 mph S6.0 kmh S 9.9 mph15.9 kmh 29.82 in1009.8 mb 0.00 in0.0 mm 0.00 in0.0 mm 0.06 in1.5 mm
10:03 PM 73.0°F22.8°C 70.3°F21.3°C 91% 5.3 mph SW8.5 kmh SW 9.9 mph15.9 kmh 29.82 in1009.8 mb 0.00 in0.0 mm 0.00 in0.0 mm 0.06 in1.5 mm
10:04 PM 73.0°F22.8°C 70.3°F21.3°C 91% 5.3 mph SSE8.5 kmh SSE 9.9 mph15.9 kmh 29.82 in1009.8 mb 0.00 in0.0 mm 0.00 in0.0 mm 0.06 in1.5 mm
10:05 PM 73.0°F22.8°C 70.3°F21.3°C 91% 4.7 mph SSW7.6 kmh SSW 9.9 mph15.9 kmh 29.82 in1009.8 mb 0.00 in0.0 mm 0.00 in0.0 mm 0.06 in1.5 mm
10:06 PM 73.0°F22.8°C 70.3°F21.3°C 91% 2.7 mph SE4.3 kmh SE 9.9 mph15.9 kmh 29.82 in1009.8 mb 0.00 in0.0 mm 0.00 in0.0 mm 0.06 in1.5 mm
10:07 PM 73.0°F22.8°C 70.3°F21.3°C 91% 5.3 mph S8.5 kmh S 9.9 mph15.9 kmh 29.82 in1009.8 mb 0.00 in0.0 mm 0.00 in0.0 mm 0.06 in1.5 mm
10:08 PM 73.0°F22.8°C 70.3°F21.3°C 91% 4.2 mph SSW6.8 kmh SSW 9.9 mph15.9 kmh 29.82 in1009.8 mb 0.00 in0.0 mm 0.00 in0.0 mm 0.06 in1.5 mm
10:09 PM 73.0°F22.8°C 70.3°F21.3°C 91% 3.7 mph SE6.0 kmh SE 9.9 mph15.9 kmh 29.82 in1009.8 mb 0.00 in0.0 mm 0.00 in0.0 mm 0.06 in1.5 mm
10:10 PM 73.0°F22.8°C 70.3°F21.3°C 91% 6.3 mph SSW10.1 kmh SSW 9.4 mph15.1 kmh 29.82 in1009.8 mb 0.00 in0.0 mm 0.00 in0.0 mm 0.06 in1.5 mm
10:11 PM 72.9°F22.7°C 70.1°F21.2°C 91% 2.7 mph SSE4.3 kmh SSE 9.4 mph15.1 kmh 29.82 in1009.8 mb 0.00 in0.0 mm 0.00 in0.0 mm 0.06 in1.5 mm
10:12 PM 72.9°F22.7°C 70.1°F21.2°C 91% 9.4 mph S15.1 kmh S 9.4 mph15.1 kmh 29.82 in1009.8 mb 0.00 in0.0 mm 0.00 in0.0 mm 0.06 in1.5 mm
10:13 PM 73.0°F22.8°C 70.6°F21.4°C 92% 7.3 mph SSW11.7 kmh SSW 11.4 mph18.3 kmh 29.81 in1009.5 mb 0.00 in0.0 mm 0.00 in0.0 mm 0.06 in1.5 mm
10:14 PM 72.9°F22.7°C 70.4°F21.3°C 92% 6.3 mph SSW10.1 kmh SSW 11.4 mph18.3 kmh 29.81 in1009.5 mb 0.00 in0.0 mm 0.00 in0.0 mm 0.06 in1.5 mm
10:15 PM 72.9°F22.7°C 70.4°F21.3°C 92% 5.3 mph S8.5 kmh S 11.4 mph18.3 kmh 29.81 in1009.5 mb 0.00 in0.0 mm 0.00 in0.0 mm 0.06 in1.5 mm
10:16 PM 72.9°F22.7°C 70.4°F21.3°C 92% 6.3 mph S10.1 kmh S 11.4 mph18.3 kmh 29.81 in1009.5 mb 0.00 in0.0 mm 0.00 in0.0 mm 0.06 in1.5 mm
10:17 PM 72.9°F22.7°C 70.4°F21.3°C 92% 4.2 mph S6.8 kmh S 11.4 mph18.3 kmh 29.81 in1009.5 mb 0.00 in0.0 mm 0.00 in0.0 mm 0.06 in1.5 mm
10:18 PM 72.7°F22.6°C 70.2°F21.2°C 92% 7.3 mph SSE11.7 kmh SSE 11.4 mph18.3 kmh 29.81 in1009.5 mb 0.00 in0.0 mm 0.00 in0.0 mm 0.06 in1.5 mm
10:19 PM 72.7°F22.6°C 70.2°F21.2°C 92% 4.2 mph SE6.8 kmh SE 11.4 mph18.3 kmh 29.81 in1009.5 mb 0.00 in0.0 mm 0.00 in0.0 mm 0.06 in1.5 mm
10:20 PM 72.9°F22.7°C 70.4°F21.3°C 92% 8.9 mph S14.3 kmh S 13.0 mph20.9 kmh 29.81 in1009.5 mb 0.00 in0.0 mm 0.00 in0.0 mm 0.06 in1.5 mm
10:21 PM 72.7°F22.6°C 70.2°F21.2°C 92% 7.3 mph SSW11.7 kmh SSW 13.0 mph20.9 kmh 29.81 in1009.5 mb 0.00 in0.0 mm 0.00 in0.0 mm 0.06 in1.5 mm
10:22 PM 72.5°F22.5°C 70.0°F21.1°C 92% 12.0 mph SSW19.3 kmh SSW 14.5 mph23.3 kmh 29.81 in1009.5 mb 0.00 in0.0 mm 0.00 in0.0 mm 0.06 in1.5 mm
10:23 PM 72.5°F22.5°C 70.0°F21.1°C 92% 8.3 mph S13.4 kmh S 14.5 mph23.3 kmh 29.81 in1009.5 mb 0.00 in0.0 mm 0.00 in0.0 mm 0.06 in1.5 mm
10:24 PM 72.5°F22.5°C 70.0°F21.1°C 92% 11.4 mph SSW18.3 kmh SSW 14.5 mph23.3 kmh 29.81 in1009.5 mb 0.00 in0.0 mm 0.00 in0.0 mm 0.06 in1.5 mm
10:25 PM 72.5°F22.5°C 70.0°F21.1°C 92% 10.9 mph SSW17.5 kmh SSW 14.5 mph23.3 kmh 29.81 in1009.5 mb 0.00 in0.0 mm 0.00 in0.0 mm 0.06 in1.5 mm
10:26 PM 72.7°F22.6°C 70.2°F21.2°C 92% 9.4 mph S15.1 kmh S 14.5 mph23.3 kmh 29.81 in1009.5 mb 0.00 in0.0 mm 0.00 in0.0 mm 0.06 in1.5 mm
10:27 PM 72.7°F22.6°C 70.2°F21.2°C 92% 16.1 mph SSW25.9 kmh SSW 16.1 mph25.9 kmh 29.81 in1009.5 mb 0.00 in0.0 mm 0.00 in0.0 mm 0.06 in1.5 mm
10:28 PM 72.9°F22.7°C 70.4°F21.3°C 92% 15.0 mph SW24.1 kmh SW 17.1 mph27.5 kmh 29.81 in1009.5 mb 0.00 in0.0 mm 0.00 in0.0 mm 0.06 in1.5 mm
10:29 PM 72.9°F22.7°C 70.4°F21.3°C 92% 9.4 mph S15.1 kmh S 17.1 mph27.5 kmh 29.81 in1009.5 mb 0.00 in0.0 mm 0.00 in0.0 mm 0.06 in1.5 mm
10:30 PM 72.7°F22.6°C 70.2°F21.2°C 92% 8.3 mph SSW13.4 kmh SSW 17.1 mph27.5 kmh 29.81 in1009.5 mb 0.00 in0.0 mm 0.00 in0.0 mm 0.06 in1.5 mm
10:31 PM 72.9°F22.7°C 70.4°F21.3°C 92% 12.5 mph SSW20.1 kmh SSW 17.1 mph27.5 kmh 29.81 in1009.5 mb 0.00 in0.0 mm 0.00 in0.0 mm 0.06 in1.5 mm
10:32 PM 72.9°F22.7°C 70.4°F21.3°C 92% 8.9 mph SSW14.3 kmh SSW 17.1 mph27.5 kmh 29.81 in1009.5 mb 0.00 in0.0 mm 0.00 in0.0 mm 0.06 in1.5 mm
10:33 PM 72.7°F22.6°C 70.2°F21.2°C 92% 6.3 mph SSW10.1 kmh SSW 17.1 mph27.5 kmh 29.81 in1009.5 mb 0.00 in0.0 mm 0.00 in0.0 mm 0.06 in1.5 mm
10:34 PM 72.9°F22.7°C 70.4°F21.3°C 92% 10.9 mph S17.5 kmh S 17.1 mph27.5 kmh 29.81 in1009.5 mb 0.00 in0.0 mm 0.00 in0.0 mm 0.06 in1.5 mm
10:35 PM 72.7°F22.6°C 70.2°F21.2°C 92% 15.6 mph S25.1 kmh S 17.1 mph27.5 kmh 29.81 in1009.5 mb 0.00 in0.0 mm 0.00 in0.0 mm 0.06 in1.5 mm
10:36 PM 72.9°F22.7°C 70.4°F21.3°C 92% 7.3 mph S11.7 kmh S 17.1 mph27.5 kmh 29.81 in1009.5 mb 0.00 in0.0 mm 0.00 in0.0 mm 0.06 in1.5 mm
10:37 PM 72.9°F22.7°C 70.4°F21.3°C 92% 8.9 mph S14.3 kmh S 17.1 mph27.5 kmh 29.82 in1009.8 mb 0.00 in0.0 mm 0.00 in0.0 mm 0.06 in1.5 mm
10:38 PM 72.7°F22.6°C 70.2°F21.2°C 92% 6.8 mph SSW10.9 kmh SSW 15.6 mph25.1 kmh 29.82 in1009.8 mb 0.00 in0.0 mm 0.00 in0.0 mm 0.06 in1.5 mm
10:39 PM 72.9°F22.7°C 70.4°F21.3°C 92% 10.9 mph SSW17.5 kmh SSW 15.6 mph25.1 kmh 29.82 in1009.8 mb 0.00 in0.0 mm 0.00 in0.0 mm 0.06 in1.5 mm
10:40 PM 72.7°F22.6°C 70.2°F21.2°C 92% 7.8 mph S12.6 kmh S 15.6 mph25.1 kmh 29.82 in1009.8 mb 0.00 in0.0 mm 0.00 in0.0 mm 0.06 in1.5 mm
10:41 PM 72.7°F22.6°C 70.2°F21.2°C 92% 4.7 mph S7.6 kmh S 15.6 mph25.1 kmh 29.82 in1009.8 mb 0.00 in0.0 mm 0.00 in0.0 mm 0.06 in1.5 mm
10:42 PM 72.7°F22.6°C 70.2°F21.2°C 92% 5.3 mph S8.5 kmh S 15.6 mph25.1 kmh 29.82 in1009.8 mb 0.00 in0.0 mm 0.00 in0.0 mm 0.06 in1.5 mm
10:43 PM 72.5°F22.5°C 70.0°F21.1°C 92% 9.9 mph SSW15.9 kmh SSW 15.6 mph25.1 kmh 29.82 in1009.8 mb 0.00 in0.0 mm 0.00 in0.0 mm 0.06 in1.5 mm
10:44 PM 72.3°F22.4°C 69.9°F21.1°C 92% 6.3 mph S10.1 kmh S 15.6 mph25.1 kmh 29.82 in1009.8 mb 0.00 in0.0 mm 0.00 in0.0 mm 0.06 in1.5 mm
10:45 PM 72.3°F22.4°C 69.9°F21.1°C 92% 5.8 mph SSW9.3 kmh SSW 15.6 mph25.1 kmh 29.82 in1009.8 mb 0.00 in0.0 mm 0.00 in0.0 mm 0.06 in1.5 mm
10:46 PM 72.5°F22.5°C 70.0°F21.1°C 92% 7.8 mph S12.6 kmh S 10.9 mph17.5 kmh 29.82 in1009.8 mb 0.00 in0.0 mm 0.00 in0.0 mm 0.06 in1.5 mm
10:47 PM 72.5°F22.5°C 70.0°F21.1°C 92% 8.9 mph SSW14.3 kmh SSW 10.9 mph17.5 kmh 29.82 in1009.8 mb 0.00 in0.0 mm 0.00 in0.0 mm 0.06 in1.5 mm
10:48 PM 72.5°F22.5°C 70.0°F21.1°C 92% 13.5 mph SSW21.7 kmh SSW 13.5 mph21.7 kmh 29.82 in1009.8 mb 0.00 in0.0 mm 0.00 in0.0 mm 0.06 in1.5 mm
10:49 PM 72.3°F22.4°C 69.9°F21.1°C 92% 8.9 mph SSW14.3 kmh SSW 13.5 mph21.7 kmh 29.82 in1009.8 mb 0.00 in0.0 mm 0.00 in0.0 mm 0.06 in1.5 mm
10:50 PM 72.3°F22.4°C 69.9°F21.1°C 92% 8.9 mph SSW14.3 kmh SSW 13.5 mph21.7 kmh 29.82 in1009.8 mb 0.00 in0.0 mm 0.00 in0.0 mm 0.06 in1.5 mm
10:51 PM 72.3°F22.4°C 69.9°F21.1°C 92% 3.7 mph S6.0 kmh S 13.5 mph21.7 kmh 29.82 in1009.8 mb 0.00 in0.0 mm 0.00 in0.0 mm 0.06 in1.5 mm
10:52 PM 72.3°F22.4°C 69.9°F21.1°C 92% 8.9 mph S14.3 kmh S 13.5 mph21.7 kmh 29.82 in1009.8 mb 0.00 in0.0 mm 0.00 in0.0 mm 0.06 in1.5 mm
10:53 PM 72.3°F22.4°C 69.9°F21.1°C 92% 7.8 mph SSE12.6 kmh SSE 13.5 mph21.7 kmh 29.82 in1009.8 mb 0.00 in0.0 mm 0.00 in0.0 mm 0.06 in1.5 mm
10:54 PM 72.3°F22.4°C 69.9°F21.1°C 92% 7.8 mph SSW12.6 kmh SSW 13.5 mph21.7 kmh 29.82 in1009.8 mb 0.00 in0.0 mm 0.00 in0.0 mm 0.06 in1.5 mm
10:55 PM 72.3°F22.4°C 69.9°F21.1°C 92% 10.9 mph SSW17.5 kmh SSW 13.5 mph21.7 kmh 29.82 in1009.8 mb 0.00 in0.0 mm 0.00 in0.0 mm 0.06 in1.5 mm
10:56 PM 72.1°F22.3°C 69.7°F20.9°C 92% 8.9 mph SSW14.3 kmh SSW 13.5 mph21.7 kmh 29.82 in1009.8 mb 0.00 in0.0 mm 0.00 in0.0 mm 0.06 in1.5 mm
10:57 PM 72.1°F22.3°C 69.7°F20.9°C 92% 8.9 mph S14.3 kmh S 13.5 mph21.7 kmh 29.82 in1009.8 mb 0.00 in0.0 mm 0.00 in0.0 mm 0.06 in1.5 mm
10:58 PM 72.1°F22.3°C 69.7°F20.9°C 92% 8.9 mph SSW14.3 kmh SSW 10.9 mph17.5 kmh 29.82 in1009.8 mb 0.00 in0.0 mm 0.00 in0.0 mm 0.06 in1.5 mm
10:59 PM 72.0°F22.2°C 69.5°F20.8°C 92% 7.8 mph S12.6 kmh S 10.9 mph17.5 kmh 29.82 in1009.8 mb 0.00 in0.0 mm 0.00 in0.0 mm 0.06 in1.5 mm
11:00 PM 72.0°F22.2°C 69.5°F20.8°C 92% 6.8 mph SSW10.9 kmh SSW 10.9 mph17.5 kmh 29.82 in1009.8 mb 0.00 in0.0 mm 0.00 in0.0 mm 0.06 in1.5 mm
11:01 PM 72.1°F22.3°C 69.7°F20.9°C 92% 6.8 mph SSW10.9 kmh SSW 10.9 mph17.5 kmh 29.82 in1009.8 mb 0.00 in0.0 mm 0.00 in0.0 mm 0.06 in1.5 mm
11:02 PM 72.1°F22.3°C 69.7°F20.9°C 92% 9.4 mph S15.1 kmh S 10.9 mph17.5 kmh 29.82 in1009.8 mb 0.00 in0.0 mm 0.00 in0.0 mm 0.06 in1.5 mm
11:03 PM 72.3°F22.4°C 69.9°F21.1°C 92% 7.3 mph SSW11.7 kmh SSW 10.9 mph17.5 kmh 29.82 in1009.8 mb 0.00 in0.0 mm 0.00 in0.0 mm 0.06 in1.5 mm
11:04 PM 72.1°F22.3°C 69.7°F20.9°C 92% 9.4 mph SSW15.1 kmh SSW 10.9 mph17.5 kmh 29.82 in1009.8 mb 0.00 in0.0 mm 0.00 in0.0 mm 0.06 in1.5 mm
11:05 PM 72.1°F22.3°C 69.7°F20.9°C 92% 7.8 mph S12.6 kmh S 10.9 mph17.5 kmh 29.82 in1009.8 mb 0.00 in0.0 mm 0.00 in0.0 mm 0.06 in1.5 mm
11:06 PM 72.1°F22.3°C 69.7°F20.9°C 92% 8.3 mph SSW13.4 kmh SSW 10.9 mph17.5 kmh 29.82 in1009.8 mb 0.00 in0.0 mm 0.00 in0.0 mm 0.06 in1.5 mm
11:07 PM 72.1°F22.3°C 69.7°F20.9°C 92% 5.8 mph SSW9.3 kmh SSW 10.9 mph17.5 kmh 29.82 in1009.8 mb 0.00 in0.0 mm 0.00 in0.0 mm 0.06 in1.5 mm
11:08 PM 72.1°F22.3°C 69.7°F20.9°C 92% 10.9 mph SSW17.5 kmh SSW 10.9 mph17.5 kmh 29.82 in1009.8 mb 0.00 in0.0 mm 0.00 in0.0 mm 0.06 in1.5 mm
11:09 PM 72.1°F22.3°C 69.7°F20.9°C 92% 5.3 mph S8.5 kmh S 10.9 mph17.5 kmh 29.82 in1009.8 mb 0.00 in0.0 mm 0.00 in0.0 mm 0.06 in1.5 mm
11:10 PM 72.1°F22.3°C 69.7°F20.9°C 92% 6.8 mph S10.9 kmh S 10.9 mph17.5 kmh 29.82 in1009.8 mb 0.00 in0.0 mm 0.00 in0.0 mm 0.06 in1.5 mm
11:11 PM 72.1°F22.3°C 69.7°F20.9°C 92% 6.3 mph SSW10.1 kmh SSW 12.5 mph20.1 kmh 29.82 in1009.8 mb 0.00 in0.0 mm 0.00 in0.0 mm 0.06 in1.5 mm
11:12 PM 72.0°F22.2°C 69.5°F20.8°C 92% 8.9 mph S14.3 kmh S 12.5 mph20.1 kmh 29.82 in1009.8 mb 0.00 in0.0 mm 0.00 in0.0 mm 0.06 in1.5 mm
11:13 PM 72.1°F22.3°C 69.7°F20.9°C 92% 7.3 mph SSW11.7 kmh SSW 12.5 mph20.1 kmh 29.82 in1009.8 mb 0.00 in0.0 mm 0.00 in0.0 mm 0.06 in1.5 mm
11:14 PM 72.1°F22.3°C 69.7°F20.9°C 92% 7.8 mph SSW12.6 kmh SSW 12.5 mph20.1 kmh 29.82 in1009.8 mb 0.00 in0.0 mm 0.00 in0.0 mm 0.06 in1.5 mm
11:15 PM 72.1°F22.3°C 69.7°F20.9°C 92% 9.9 mph S15.9 kmh S 12.5 mph20.1 kmh 29.82 in1009.8 mb 0.00 in0.0 mm 0.00 in0.0 mm 0.06 in1.5 mm
11:16 PM 72.1°F22.3°C 69.7°F20.9°C 92% 7.3 mph SSW11.7 kmh SSW 12.5 mph20.1 kmh 29.82 in1009.8 mb 0.00 in0.0 mm 0.00 in0.0 mm 0.06 in1.5 mm
11:17 PM 72.1°F22.3°C 69.7°F20.9°C 92% 6.3 mph S10.1 kmh S 12.5 mph20.1 kmh 29.82 in1009.8 mb 0.00 in0.0 mm 0.00 in0.0 mm 0.06 in1.5 mm
11:18 PM 72.1°F22.3°C 69.7°F20.9°C 92% 7.3 mph SSE11.7 kmh SSE 12.5 mph20.1 kmh 29.82 in1009.8 mb 0.00 in0.0 mm 0.00 in0.0 mm 0.06 in1.5 mm
11:19 PM 72.3°F22.4°C 69.9°F21.1°C 92% 9.4 mph SSW15.1 kmh SSW 12.5 mph20.1 kmh 29.82 in1009.8 mb 0.00 in0.0 mm 0.00 in0.0 mm 0.06 in1.5 mm
11:20 PM 72.3°F22.4°C 69.9°F21.1°C 92% 4.7 mph SSW7.6 kmh SSW 12.5 mph20.1 kmh 29.82 in1009.8 mb 0.00 in0.0 mm 0.00 in0.0 mm 0.06 in1.5 mm
11:21 PM 72.3°F22.4°C 69.9°F21.1°C 92% 5.8 mph S9.3 kmh S 10.9 mph17.5 kmh 29.82 in1009.8 mb 0.00 in0.0 mm 0.00 in0.0 mm 0.06 in1.5 mm
11:22 PM 72.3°F22.4°C 69.9°F21.1°C 92% 6.3 mph SSW10.1 kmh SSW 10.9 mph17.5 kmh 29.82 in1009.8 mb 0.00 in0.0 mm 0.00 in0.0 mm 0.06 in1.5 mm
11:23 PM 72.1°F22.3°C 69.7°F20.9°C 92% 4.7 mph S7.6 kmh S 10.9 mph17.5 kmh 29.82 in1009.8 mb 0.00 in0.0 mm 0.00 in0.0 mm 0.06 in1.5 mm
11:24 PM 72.3°F22.4°C 69.9°F21.1°C 92% 6.8 mph SSW10.9 kmh SSW 9.9 mph15.9 kmh 29.82 in1009.8 mb 0.00 in0.0 mm 0.00 in0.0 mm 0.06 in1.5 mm
11:25 PM 72.3°F22.4°C 69.9°F21.1°C 92% 7.8 mph SSW12.6 kmh SSW 9.4 mph15.1 kmh 29.82 in1009.8 mb 0.00 in0.0 mm 0.00 in0.0 mm 0.06 in1.5 mm
11:26 PM 72.3°F22.4°C 69.9°F21.1°C 92% 6.8 mph SSW10.9 kmh SSW 9.4 mph15.1 kmh 29.82 in1009.8 mb 0.00 in0.0 mm 0.00 in0.0 mm 0.06 in1.5 mm
11:27 PM 72.3°F22.4°C 69.9°F21.1°C 92% 4.2 mph S6.8 kmh S 9.4 mph15.1 kmh 29.82 in1009.8 mb 0.00 in0.0 mm 0.00 in0.0 mm 0.06 in1.5 mm
11:28 PM 72.3°F22.4°C 69.9°F21.1°C 92% 6.3 mph SSE10.1 kmh SSE 9.4 mph15.1 kmh 29.82 in1009.8 mb 0.00 in0.0 mm 0.00 in0.0 mm 0.06 in1.5 mm
11:29 PM 72.3°F22.4°C 69.9°F21.1°C 92% 9.4 mph S15.1 kmh S 9.4 mph15.1 kmh 29.82 in1009.8 mb 0.00 in0.0 mm 0.00 in0.0 mm 0.06 in1.5 mm
11:30 PM 72.1°F22.3°C 69.7°F20.9°C 92% 3.7 mph S6.0 kmh S 9.4 mph15.1 kmh 29.82 in1009.8 mb 0.00 in0.0 mm 0.00 in0.0 mm 0.06 in1.5 mm
11:31 PM 72.1°F22.3°C 69.7°F20.9°C 92% 6.8 mph S10.9 kmh S 9.4 mph15.1 kmh 29.82 in1009.8 mb 0.00 in0.0 mm 0.00 in0.0 mm 0.06 in1.5 mm
11:32 PM 72.1°F22.3°C 69.7°F20.9°C 92% 9.9 mph SSW15.9 kmh SSW 9.9 mph15.9 kmh 29.82 in1009.8 mb 0.00 in0.0 mm 0.00 in0.0 mm 0.06 in1.5 mm
11:33 PM 72.0°F22.2°C 69.5°F20.8°C 92% 6.8 mph SSW10.9 kmh SSW 9.9 mph15.9 kmh 29.82 in1009.8 mb 0.00 in0.0 mm 0.00 in0.0 mm 0.06 in1.5 mm
11:34 PM 72.0°F22.2°C 69.5°F20.8°C 92% 5.3 mph SSW8.5 kmh SSW 9.9 mph15.9 kmh 29.82 in1009.8 mb 0.00 in0.0 mm 0.00 in0.0 mm 0.06 in1.5 mm
11:35 PM 72.0°F22.2°C 69.5°F20.8°C 92% 7.3 mph SSW11.7 kmh SSW 9.9 mph15.9 kmh 29.82 in1009.8 mb 0.00 in0.0 mm 0.00 in0.0 mm 0.06 in1.5 mm
11:36 PM 72.0°F22.2°C 69.5°F20.8°C 92% 5.3 mph SSW8.5 kmh SSW 9.9 mph15.9 kmh 29.82 in1009.8 mb 0.00 in0.0 mm 0.00 in0.0 mm 0.06 in1.5 mm
11:37 PM 72.0°F22.2°C 69.5°F20.8°C 92% 4.2 mph SSW6.8 kmh SSW 9.9 mph15.9 kmh 29.81 in1009.5 mb 0.00 in0.0 mm 0.00 in0.0 mm 0.06 in1.5 mm
11:38 PM 72.1°F22.3°C 70.0°F21.1°C 93% 8.9 mph SSW14.3 kmh SSW 9.9 mph15.9 kmh 29.81 in1009.5 mb 0.00 in0.0 mm 0.00 in0.0 mm 0.06 in1.5 mm
11:39 PM 72.0°F22.2°C 69.8°F21.0°C 93% 6.3 mph WSW10.1 kmh WSW 9.9 mph15.9 kmh 29.81 in1009.5 mb 0.00 in0.0 mm 0.00 in0.0 mm 0.06 in1.5 mm
11:40 PM 71.8°F22.1°C 69.6°F20.9°C 93% 6.8 mph S10.9 kmh S 9.9 mph15.9 kmh 29.81 in1009.5 mb 0.00 in0.0 mm 0.00 in0.0 mm 0.06 in1.5 mm
11:41 PM 71.8°F22.1°C 69.6°F20.9°C 93% 7.3 mph S11.7 kmh S 9.9 mph15.9 kmh 29.81 in1009.5 mb 0.00 in0.0 mm 0.00 in0.0 mm 0.06 in1.5 mm
11:42 PM 72.0°F22.2°C 69.8°F21.0°C 93% 7.3 mph S11.7 kmh S 8.9 mph14.3 kmh 29.81 in1009.5 mb 0.00 in0.0 mm 0.00 in0.0 mm 0.06 in1.5 mm
11:43 PM 71.8°F22.1°C 69.6°F20.9°C 93% 4.7 mph SSW7.6 kmh SSW 8.9 mph14.3 kmh 29.81 in1009.5 mb 0.00 in0.0 mm 0.00 in0.0 mm 0.06 in1.5 mm
11:44 PM 72.0°F22.2°C 69.8°F21.0°C 93% 7.3 mph S11.7 kmh S 8.9 mph14.3 kmh 29.81 in1009.5 mb 0.00 in0.0 mm 0.00 in0.0 mm 0.06 in1.5 mm
11:45 PM 72.0°F22.2°C 69.8°F21.0°C 93% 7.8 mph S12.6 kmh S 8.9 mph14.3 kmh 29.81 in1009.5 mb 0.00 in0.0 mm 0.00 in0.0 mm 0.06 in1.5 mm
11:46 PM 72.0°F22.2°C 69.8°F21.0°C 93% 8.9 mph SSE14.3 kmh SSE 8.9 mph14.3 kmh 29.81 in1009.5 mb 0.00 in0.0 mm 0.00 in0.0 mm 0.06 in1.5 mm
11:47 PM 72.0°F22.2°C 69.8°F21.0°C 93% 7.8 mph SSW12.6 kmh SSW 9.4 mph15.1 kmh 29.81 in1009.5 mb 0.00 in0.0 mm 0.00 in0.0 mm 0.06 in1.5 mm
11:48 PM 72.0°F22.2°C 69.8°F21.0°C 93% 6.3 mph S10.1 kmh S 14.0 mph22.5 kmh 29.81 in1009.5 mb 0.00 in0.0 mm 0.00 in0.0 mm 0.06 in1.5 mm
11:49 PM 71.8°F22.1°C 69.6°F20.9°C 93% 4.2 mph SSW6.8 kmh SSW 14.0 mph22.5 kmh 29.81 in1009.5 mb 0.00 in0.0 mm 0.00 in0.0 mm 0.06 in1.5 mm
11:50 PM 71.8°F22.1°C 69.6°F20.9°C 93% 4.7 mph S7.6 kmh S 14.0 mph22.5 kmh 29.81 in1009.5 mb 0.00 in0.0 mm 0.00 in0.0 mm 0.06 in1.5 mm
11:51 PM 71.8°F22.1°C 69.6°F20.9°C 93% 5.8 mph SSW9.3 kmh SSW 14.0 mph22.5 kmh 29.81 in1009.5 mb 0.00 in0.0 mm 0.00 in0.0 mm 0.06 in1.5 mm
11:52 PM 72.0°F22.2°C 69.8°F21.0°C 93% 7.3 mph S11.7 kmh S 14.0 mph22.5 kmh 29.81 in1009.5 mb 0.00 in0.0 mm 0.00 in0.0 mm 0.06 in1.5 mm
11:53 PM 71.8°F22.1°C 69.6°F20.9°C 93% 5.3 mph S8.5 kmh S 14.0 mph22.5 kmh 29.81 in1009.5 mb 0.00 in0.0 mm 0.00 in0.0 mm 0.06 in1.5 mm
11:54 PM 71.8°F22.1°C 69.6°F20.9°C 93% 6.3 mph S10.1 kmh S 14.0 mph22.5 kmh 29.81 in1009.5 mb 0.00 in0.0 mm 0.00 in0.0 mm 0.06 in1.5 mm
11:55 PM 71.6°F22.0°C 69.5°F20.8°C 93% 7.3 mph SSW11.7 kmh SSW 14.0 mph22.5 kmh 29.81 in1009.5 mb 0.00 in0.0 mm 0.00 in0.0 mm 0.06 in1.5 mm
11:56 PM 71.6°F22.0°C 69.5°F20.8°C 93% 7.8 mph SSW12.6 kmh SSW 14.0 mph22.5 kmh 29.81 in1009.5 mb 0.00 in0.0 mm 0.00 in0.0 mm 0.06 in1.5 mm
11:57 PM 71.6°F22.0°C 69.5°F20.8°C 93% 6.3 mph SSW10.1 kmh SSW 14.0 mph22.5 kmh 29.81 in1009.5 mb 0.00 in0.0 mm 0.00 in0.0 mm 0.06 in1.5 mm
11:58 PM 71.8°F22.1°C 69.6°F20.9°C 93% 6.8 mph S10.9 kmh S 8.9 mph14.3 kmh 29.81 in1009.5 mb 0.00 in0.0 mm 0.00 in0.0 mm 0.06 in1.5 mm
11:59 PM 72.0°F22.2°C 69.8°F21.0°C 93% 9.4 mph S15.1 kmh S 9.4 mph15.1 kmh 29.81 in1009.5 mb 0.00 in0.0 mm 0.00 in0.0 mm 0.06 in1.5 mm